<?xml version="1.0" encoding="UTF-8" standalone="no" ?>
<gpx xmlns="http://www.topografix.com/GPX/1/1" xmlns:xsi="http://www.w3.org/2001/XMLSchema-instance" xsi:schemaLocation="http://www.topografix.com/GPX/1/1 http://www.topografix.com/GPX/1/1/gpx.xsd" version="1.1" creator="VisuGPX - https://www.visugpx.com">
  <metadata>
    <name>Nenon - Falletans</name>
    <desc><![CDATA[Randonnée pédestre effectuée le 6 mars 2019]]></desc>
  </metadata>
  <trk>
    <name><![CDATA[20190306143243-4E7AB]]></name>
    <trkseg>
      <trkpt lat="47.12427" lon="5.5866">
        <ele>208.6</ele>
      </trkpt>
      <trkpt lat="47.12415" lon="5.58674">
        <ele>201</ele>
        <time>2019-03-06T08:07:00Z</time>
      </trkpt>
      <trkpt lat="47.12398" lon="5.58668">
        <ele>201</ele>
        <time>2019-03-06T08:07:16Z</time>
      </trkpt>
      <trkpt lat="47.12373" lon="5.58659">
        <ele>206</ele>
        <time>2019-03-06T08:07:37Z</time>
      </trkpt>
      <trkpt lat="47.12368" lon="5.58656">
        <ele>206</ele>
        <time>2019-03-06T08:07:41Z</time>
      </trkpt>
      <trkpt lat="47.12363" lon="5.58656">
        <ele>207</ele>
        <time>2019-03-06T08:07:44Z</time>
      </trkpt>
      <trkpt lat="47.12348" lon="5.58652">
        <ele>208</ele>
        <time>2019-03-06T08:07:56Z</time>
      </trkpt>
      <trkpt lat="47.12333" lon="5.58649">
        <ele>208</ele>
        <time>2019-03-06T08:08:09Z</time>
      </trkpt>
      <trkpt lat="47.12317" lon="5.58649">
        <ele>209</ele>
        <time>2019-03-06T08:08:23Z</time>
      </trkpt>
      <trkpt lat="47.12313" lon="5.58648">
        <ele>209</ele>
        <time>2019-03-06T08:08:28Z</time>
      </trkpt>
      <trkpt lat="47.12308" lon="5.58646">
        <ele>209</ele>
        <time>2019-03-06T08:08:32Z</time>
      </trkpt>
      <trkpt lat="47.12302" lon="5.58647">
        <ele>210</ele>
        <time>2019-03-06T08:08:36Z</time>
      </trkpt>
      <trkpt lat="47.12291" lon="5.58649">
        <ele>210</ele>
        <time>2019-03-06T08:08:44Z</time>
      </trkpt>
      <trkpt lat="47.12281" lon="5.58652">
        <ele>210</ele>
        <time>2019-03-06T08:08:53Z</time>
      </trkpt>
      <trkpt lat="47.12277" lon="5.58655">
        <ele>210</ele>
        <time>2019-03-06T08:08:57Z</time>
      </trkpt>
      <trkpt lat="47.12273" lon="5.58659">
        <ele>209</ele>
        <time>2019-03-06T08:09:01Z</time>
      </trkpt>
      <trkpt lat="47.12251" lon="5.58676">
        <ele>210</ele>
        <time>2019-03-06T08:09:22Z</time>
      </trkpt>
      <trkpt lat="47.1224" lon="5.5868">
        <ele>210</ele>
        <time>2019-03-06T08:09:30Z</time>
      </trkpt>
      <trkpt lat="47.12235" lon="5.58682">
        <ele>210</ele>
        <time>2019-03-06T08:09:34Z</time>
      </trkpt>
      <trkpt lat="47.1223" lon="5.58685">
        <ele>210</ele>
        <time>2019-03-06T08:09:38Z</time>
      </trkpt>
      <trkpt lat="47.12202" lon="5.58718">
        <ele>213</ele>
        <time>2019-03-06T08:10:04Z</time>
      </trkpt>
      <trkpt lat="47.12199" lon="5.58725">
        <ele>214</ele>
        <time>2019-03-06T08:10:08Z</time>
      </trkpt>
      <trkpt lat="47.12198" lon="5.58732">
        <ele>214</ele>
        <time>2019-03-06T08:10:12Z</time>
      </trkpt>
      <trkpt lat="47.12198" lon="5.5874">
        <ele>215</ele>
        <time>2019-03-06T08:10:16Z</time>
      </trkpt>
      <trkpt lat="47.12199" lon="5.58746">
        <ele>215</ele>
        <time>2019-03-06T08:10:19Z</time>
      </trkpt>
      <trkpt lat="47.122" lon="5.58754">
        <ele>215</ele>
        <time>2019-03-06T08:10:23Z</time>
      </trkpt>
      <trkpt lat="47.12203" lon="5.58763">
        <ele>216</ele>
        <time>2019-03-06T08:10:29Z</time>
      </trkpt>
      <trkpt lat="47.12205" lon="5.58769">
        <ele>216</ele>
        <time>2019-03-06T08:10:34Z</time>
      </trkpt>
      <trkpt lat="47.12207" lon="5.58777">
        <ele>216</ele>
        <time>2019-03-06T08:10:39Z</time>
      </trkpt>
      <trkpt lat="47.1221" lon="5.58803">
        <ele>217</ele>
        <time>2019-03-06T08:10:57Z</time>
      </trkpt>
      <trkpt lat="47.1221" lon="5.5881">
        <ele>217</ele>
        <time>2019-03-06T08:11:01Z</time>
      </trkpt>
      <trkpt lat="47.12209" lon="5.58817">
        <ele>217</ele>
        <time>2019-03-06T08:11:05Z</time>
      </trkpt>
      <trkpt lat="47.1221" lon="5.58825">
        <ele>218</ele>
        <time>2019-03-06T08:11:10Z</time>
      </trkpt>
      <trkpt lat="47.12221" lon="5.5887">
        <ele>223</ele>
        <time>2019-03-06T08:11:41Z</time>
      </trkpt>
      <trkpt lat="47.12224" lon="5.58878">
        <ele>224</ele>
        <time>2019-03-06T08:11:46Z</time>
      </trkpt>
      <trkpt lat="47.12227" lon="5.58883">
        <ele>224</ele>
        <time>2019-03-06T08:11:50Z</time>
      </trkpt>
      <trkpt lat="47.12234" lon="5.58892">
        <ele>227</ele>
        <time>2019-03-06T08:11:58Z</time>
      </trkpt>
      <trkpt lat="47.1224" lon="5.58905">
        <ele>227</ele>
        <time>2019-03-06T08:12:07Z</time>
      </trkpt>
      <trkpt lat="47.1225" lon="5.58921">
        <ele>229</ele>
        <time>2019-03-06T08:12:20Z</time>
      </trkpt>
      <trkpt lat="47.12253" lon="5.58926">
        <ele>229</ele>
        <time>2019-03-06T08:12:24Z</time>
      </trkpt>
      <trkpt lat="47.12256" lon="5.58932">
        <ele>230</ele>
        <time>2019-03-06T08:12:28Z</time>
      </trkpt>
      <trkpt lat="47.12258" lon="5.58938">
        <ele>230</ele>
        <time>2019-03-06T08:12:32Z</time>
      </trkpt>
      <trkpt lat="47.12265" lon="5.58948">
        <ele>230</ele>
        <time>2019-03-06T08:12:40Z</time>
      </trkpt>
      <trkpt lat="47.12268" lon="5.58955">
        <ele>230</ele>
        <time>2019-03-06T08:12:44Z</time>
      </trkpt>
      <trkpt lat="47.12271" lon="5.5896">
        <ele>230</ele>
        <time>2019-03-06T08:12:49Z</time>
      </trkpt>
      <trkpt lat="47.12275" lon="5.58964">
        <ele>230</ele>
        <time>2019-03-06T08:12:53Z</time>
      </trkpt>
      <trkpt lat="47.12285" lon="5.58982">
        <ele>231</ele>
        <time>2019-03-06T08:13:04Z</time>
      </trkpt>
      <trkpt lat="47.12293" lon="5.59011">
        <ele>231</ele>
        <time>2019-03-06T08:13:22Z</time>
      </trkpt>
      <trkpt lat="47.12303" lon="5.59052">
        <ele>233</ele>
        <time>2019-03-06T08:13:48Z</time>
      </trkpt>
      <trkpt lat="47.12306" lon="5.59064">
        <ele>233</ele>
        <time>2019-03-06T08:13:55Z</time>
      </trkpt>
      <trkpt lat="47.12308" lon="5.59079">
        <ele>234</ele>
        <time>2019-03-06T08:14:04Z</time>
      </trkpt>
      <trkpt lat="47.12306" lon="5.591">
        <ele>235</ele>
        <time>2019-03-06T08:14:14Z</time>
      </trkpt>
      <trkpt lat="47.12306" lon="5.59114">
        <ele>235</ele>
        <time>2019-03-06T08:14:22Z</time>
      </trkpt>
      <trkpt lat="47.12302" lon="5.59142">
        <ele>236</ele>
        <time>2019-03-06T08:14:39Z</time>
      </trkpt>
      <trkpt lat="47.12303" lon="5.59155">
        <ele>236</ele>
        <time>2019-03-06T08:14:48Z</time>
      </trkpt>
      <trkpt lat="47.12307" lon="5.59168">
        <ele>237</ele>
        <time>2019-03-06T08:14:57Z</time>
      </trkpt>
      <trkpt lat="47.12313" lon="5.5921">
        <ele>240</ele>
        <time>2019-03-06T08:15:18Z</time>
      </trkpt>
      <trkpt lat="47.12309" lon="5.59239">
        <ele>239</ele>
        <time>2019-03-06T08:15:31Z</time>
      </trkpt>
      <trkpt lat="47.1231" lon="5.59253">
        <ele>239</ele>
        <time>2019-03-06T08:15:37Z</time>
      </trkpt>
      <trkpt lat="47.12313" lon="5.5928">
        <ele>239</ele>
        <time>2019-03-06T08:15:53Z</time>
      </trkpt>
      <trkpt lat="47.12316" lon="5.59294">
        <ele>240</ele>
        <time>2019-03-06T08:16:01Z</time>
      </trkpt>
      <trkpt lat="47.12319" lon="5.59306">
        <ele>239</ele>
        <time>2019-03-06T08:16:08Z</time>
      </trkpt>
      <trkpt lat="47.12327" lon="5.59345">
        <ele>239</ele>
        <time>2019-03-06T08:16:29Z</time>
      </trkpt>
      <trkpt lat="47.12331" lon="5.59358">
        <ele>238</ele>
        <time>2019-03-06T08:16:37Z</time>
      </trkpt>
      <trkpt lat="47.12333" lon="5.59372">
        <ele>239</ele>
        <time>2019-03-06T08:16:45Z</time>
      </trkpt>
      <trkpt lat="47.12338" lon="5.59399">
        <ele>241</ele>
        <time>2019-03-06T08:16:59Z</time>
      </trkpt>
      <trkpt lat="47.12334" lon="5.59406">
        <ele>241</ele>
        <time>2019-03-06T08:17:04Z</time>
      </trkpt>
      <trkpt lat="47.12329" lon="5.59408">
        <ele>240</ele>
        <time>2019-03-06T08:17:08Z</time>
      </trkpt>
      <trkpt lat="47.12318" lon="5.59408">
        <ele>241</ele>
        <time>2019-03-06T08:17:17Z</time>
      </trkpt>
      <trkpt lat="47.12314" lon="5.59409">
        <ele>241</ele>
        <time>2019-03-06T08:17:21Z</time>
      </trkpt>
      <trkpt lat="47.12308" lon="5.5941">
        <ele>241</ele>
        <time>2019-03-06T08:17:26Z</time>
      </trkpt>
      <trkpt lat="47.12297" lon="5.59408">
        <ele>241</ele>
        <time>2019-03-06T08:17:34Z</time>
      </trkpt>
      <trkpt lat="47.12292" lon="5.59405">
        <ele>242</ele>
        <time>2019-03-06T08:17:38Z</time>
      </trkpt>
      <trkpt lat="47.12288" lon="5.59401">
        <ele>242</ele>
        <time>2019-03-06T08:17:43Z</time>
      </trkpt>
      <trkpt lat="47.12284" lon="5.59397">
        <ele>242</ele>
        <time>2019-03-06T08:17:50Z</time>
      </trkpt>
      <trkpt lat="47.12266" lon="5.59383">
        <ele>241</ele>
        <time>2019-03-06T08:18:06Z</time>
      </trkpt>
      <trkpt lat="47.12262" lon="5.59376">
        <ele>240</ele>
        <time>2019-03-06T08:18:13Z</time>
      </trkpt>
      <trkpt lat="47.12258" lon="5.59371">
        <ele>241</ele>
        <time>2019-03-06T08:18:17Z</time>
      </trkpt>
      <trkpt lat="47.12254" lon="5.59367">
        <ele>240</ele>
        <time>2019-03-06T08:18:22Z</time>
      </trkpt>
      <trkpt lat="47.1224" lon="5.59354">
        <ele>241</ele>
        <time>2019-03-06T08:18:34Z</time>
      </trkpt>
      <trkpt lat="47.12235" lon="5.59342">
        <ele>241</ele>
        <time>2019-03-06T08:18:45Z</time>
      </trkpt>
      <trkpt lat="47.12224" lon="5.59336">
        <ele>242</ele>
        <time>2019-03-06T08:18:51Z</time>
      </trkpt>
      <trkpt lat="47.1221" lon="5.5932">
        <ele>243</ele>
        <time>2019-03-06T08:19:08Z</time>
      </trkpt>
      <trkpt lat="47.12203" lon="5.59311">
        <ele>243</ele>
        <time>2019-03-06T08:19:13Z</time>
      </trkpt>
      <trkpt lat="47.12177" lon="5.59288">
        <ele>247</ele>
        <time>2019-03-06T08:19:36Z</time>
      </trkpt>
      <trkpt lat="47.12169" lon="5.59282">
        <ele>246</ele>
        <time>2019-03-06T08:19:42Z</time>
      </trkpt>
      <trkpt lat="47.1216" lon="5.59278">
        <ele>247</ele>
        <time>2019-03-06T08:19:50Z</time>
      </trkpt>
      <trkpt lat="47.12152" lon="5.59271">
        <ele>249</ele>
        <time>2019-03-06T08:19:58Z</time>
      </trkpt>
      <trkpt lat="47.12143" lon="5.59266">
        <ele>249</ele>
        <time>2019-03-06T08:20:04Z</time>
      </trkpt>
      <trkpt lat="47.12136" lon="5.59256">
        <ele>250</ele>
        <time>2019-03-06T08:20:11Z</time>
      </trkpt>
      <trkpt lat="47.12126" lon="5.5925">
        <ele>250</ele>
        <time>2019-03-06T08:20:19Z</time>
      </trkpt>
      <trkpt lat="47.12119" lon="5.59241">
        <ele>251</ele>
        <time>2019-03-06T08:20:26Z</time>
      </trkpt>
      <trkpt lat="47.12115" lon="5.59229">
        <ele>251</ele>
        <time>2019-03-06T08:20:35Z</time>
      </trkpt>
      <trkpt lat="47.12105" lon="5.59218">
        <ele>250</ele>
        <time>2019-03-06T08:20:51Z</time>
      </trkpt>
      <trkpt lat="47.12094" lon="5.59221">
        <ele>248</ele>
        <time>2019-03-06T08:20:57Z</time>
      </trkpt>
      <trkpt lat="47.12067" lon="5.59227">
        <ele>246</ele>
        <time>2019-03-06T08:21:13Z</time>
      </trkpt>
      <trkpt lat="47.12062" lon="5.59229">
        <ele>246</ele>
        <time>2019-03-06T08:21:17Z</time>
      </trkpt>
      <trkpt lat="47.12056" lon="5.59235">
        <ele>246</ele>
        <time>2019-03-06T08:21:24Z</time>
      </trkpt>
      <trkpt lat="47.12051" lon="5.59237">
        <ele>246</ele>
        <time>2019-03-06T08:21:27Z</time>
      </trkpt>
      <trkpt lat="47.12046" lon="5.59239">
        <ele>245</ele>
        <time>2019-03-06T08:21:31Z</time>
      </trkpt>
      <trkpt lat="47.12037" lon="5.59246">
        <ele>246</ele>
        <time>2019-03-06T08:21:40Z</time>
      </trkpt>
      <trkpt lat="47.12032" lon="5.59249">
        <ele>246</ele>
        <time>2019-03-06T08:21:44Z</time>
      </trkpt>
      <trkpt lat="47.12026" lon="5.59251">
        <ele>247</ele>
        <time>2019-03-06T08:21:48Z</time>
      </trkpt>
      <trkpt lat="47.12015" lon="5.59258">
        <ele>246</ele>
        <time>2019-03-06T08:22:01Z</time>
      </trkpt>
      <trkpt lat="47.1201" lon="5.59258">
        <ele>246</ele>
        <time>2019-03-06T08:22:05Z</time>
      </trkpt>
      <trkpt lat="47.11994" lon="5.59262">
        <ele>247</ele>
        <time>2019-03-06T08:22:17Z</time>
      </trkpt>
      <trkpt lat="47.11989" lon="5.59262">
        <ele>247</ele>
        <time>2019-03-06T08:22:20Z</time>
      </trkpt>
      <trkpt lat="47.1198" lon="5.59267">
        <ele>247</ele>
        <time>2019-03-06T08:22:28Z</time>
      </trkpt>
      <trkpt lat="47.11971" lon="5.59271">
        <ele>247</ele>
        <time>2019-03-06T08:22:36Z</time>
      </trkpt>
      <trkpt lat="47.1195" lon="5.59275">
        <ele>244</ele>
        <time>2019-03-06T08:22:54Z</time>
      </trkpt>
      <trkpt lat="47.1194" lon="5.59284">
        <ele>243</ele>
        <time>2019-03-06T08:23:02Z</time>
      </trkpt>
      <trkpt lat="47.11931" lon="5.59289">
        <ele>243</ele>
        <time>2019-03-06T08:23:10Z</time>
      </trkpt>
      <trkpt lat="47.11913" lon="5.59294">
        <ele>241</ele>
        <time>2019-03-06T08:23:24Z</time>
      </trkpt>
      <trkpt lat="47.11896" lon="5.59307">
        <ele>240</ele>
        <time>2019-03-06T08:23:41Z</time>
      </trkpt>
      <trkpt lat="47.11887" lon="5.5931">
        <ele>240</ele>
        <time>2019-03-06T08:23:47Z</time>
      </trkpt>
      <trkpt lat="47.11868" lon="5.59315">
        <ele>242</ele>
        <time>2019-03-06T08:24:03Z</time>
      </trkpt>
      <trkpt lat="47.1185" lon="5.59323">
        <ele>240</ele>
        <time>2019-03-06T08:24:16Z</time>
      </trkpt>
      <trkpt lat="47.11843" lon="5.59331">
        <ele>241</ele>
        <time>2019-03-06T08:24:24Z</time>
      </trkpt>
      <trkpt lat="47.11833" lon="5.59335">
        <ele>241</ele>
        <time>2019-03-06T08:24:33Z</time>
      </trkpt>
      <trkpt lat="47.11822" lon="5.59337">
        <ele>241</ele>
        <time>2019-03-06T08:24:40Z</time>
      </trkpt>
      <trkpt lat="47.11786" lon="5.59358">
        <ele>242</ele>
        <time>2019-03-06T08:25:09Z</time>
      </trkpt>
      <trkpt lat="47.11778" lon="5.59364">
        <ele>241</ele>
        <time>2019-03-06T08:25:15Z</time>
      </trkpt>
      <trkpt lat="47.1177" lon="5.59368">
        <ele>239</ele>
        <time>2019-03-06T08:25:23Z</time>
      </trkpt>
      <trkpt lat="47.11753" lon="5.59375">
        <ele>240</ele>
        <time>2019-03-06T08:25:41Z</time>
      </trkpt>
      <trkpt lat="47.11726" lon="5.59396">
        <ele>243</ele>
        <time>2019-03-06T08:26:11Z</time>
      </trkpt>
      <trkpt lat="47.11707" lon="5.59405">
        <ele>242</ele>
        <time>2019-03-06T08:26:25Z</time>
      </trkpt>
      <trkpt lat="47.11688" lon="5.59412">
        <ele>243</ele>
        <time>2019-03-06T08:26:39Z</time>
      </trkpt>
      <trkpt lat="47.11674" lon="5.59418">
        <ele>243</ele>
        <time>2019-03-06T08:26:50Z</time>
      </trkpt>
      <trkpt lat="47.1167" lon="5.59422">
        <ele>243</ele>
        <time>2019-03-06T08:26:54Z</time>
      </trkpt>
      <trkpt lat="47.11655" lon="5.59431">
        <ele>243</ele>
        <time>2019-03-06T08:27:06Z</time>
      </trkpt>
      <trkpt lat="47.11646" lon="5.59437">
        <ele>244</ele>
        <time>2019-03-06T08:27:15Z</time>
      </trkpt>
      <trkpt lat="47.1164" lon="5.59439">
        <ele>245</ele>
        <time>2019-03-06T08:27:19Z</time>
      </trkpt>
      <trkpt lat="47.11636" lon="5.59441">
        <ele>244</ele>
        <time>2019-03-06T08:27:23Z</time>
      </trkpt>
      <trkpt lat="47.11624" lon="5.59442">
        <ele>244</ele>
        <time>2019-03-06T08:27:30Z</time>
      </trkpt>
      <trkpt lat="47.11607" lon="5.59446">
        <ele>244</ele>
        <time>2019-03-06T08:27:46Z</time>
      </trkpt>
      <trkpt lat="47.11603" lon="5.59451">
        <ele>244</ele>
        <time>2019-03-06T08:27:50Z</time>
      </trkpt>
      <trkpt lat="47.11595" lon="5.5946">
        <ele>245</ele>
        <time>2019-03-06T08:27:59Z</time>
      </trkpt>
      <trkpt lat="47.11584" lon="5.59464">
        <ele>244</ele>
        <time>2019-03-06T08:28:06Z</time>
      </trkpt>
      <trkpt lat="47.1157" lon="5.59471">
        <ele>245</ele>
        <time>2019-03-06T08:28:15Z</time>
      </trkpt>
      <trkpt lat="47.11561" lon="5.59467">
        <ele>247</ele>
        <time>2019-03-06T08:28:21Z</time>
      </trkpt>
      <trkpt lat="47.11553" lon="5.59474">
        <ele>248</ele>
        <time>2019-03-06T08:28:29Z</time>
      </trkpt>
      <trkpt lat="47.11545" lon="5.59483">
        <ele>249</ele>
        <time>2019-03-06T08:28:37Z</time>
      </trkpt>
      <trkpt lat="47.11528" lon="5.59492">
        <ele>248</ele>
        <time>2019-03-06T08:28:53Z</time>
      </trkpt>
      <trkpt lat="47.1152" lon="5.59499">
        <ele>248</ele>
        <time>2019-03-06T08:29:01Z</time>
      </trkpt>
      <trkpt lat="47.1151" lon="5.595">
        <ele>249</ele>
        <time>2019-03-06T08:29:06Z</time>
      </trkpt>
      <trkpt lat="47.115" lon="5.59501">
        <ele>249</ele>
        <time>2019-03-06T08:29:13Z</time>
      </trkpt>
      <trkpt lat="47.11492" lon="5.59507">
        <ele>250</ele>
        <time>2019-03-06T08:29:22Z</time>
      </trkpt>
      <trkpt lat="47.11485" lon="5.59519">
        <ele>249</ele>
        <time>2019-03-06T08:29:33Z</time>
      </trkpt>
      <trkpt lat="47.11475" lon="5.5952">
        <ele>249</ele>
        <time>2019-03-06T08:29:39Z</time>
      </trkpt>
      <trkpt lat="47.11449" lon="5.59536">
        <ele>250</ele>
        <time>2019-03-06T08:30:02Z</time>
      </trkpt>
      <trkpt lat="47.1144" lon="5.5954">
        <ele>250</ele>
        <time>2019-03-06T08:30:09Z</time>
      </trkpt>
      <trkpt lat="47.11436" lon="5.59544">
        <ele>255</ele>
        <time>2019-03-06T08:32:51Z</time>
      </trkpt>
      <trkpt lat="47.11439" lon="5.59538">
        <ele>254</ele>
        <time>2019-03-06T08:32:56Z</time>
      </trkpt>
      <trkpt lat="47.11431" lon="5.59527">
        <ele>252</ele>
        <time>2019-03-06T08:33:07Z</time>
      </trkpt>
      <trkpt lat="47.11432" lon="5.59512">
        <ele>251</ele>
        <time>2019-03-06T08:33:21Z</time>
      </trkpt>
      <trkpt lat="47.11429" lon="5.59488">
        <ele>250</ele>
        <time>2019-03-06T08:33:36Z</time>
      </trkpt>
      <trkpt lat="47.1143" lon="5.59475">
        <ele>250</ele>
        <time>2019-03-06T08:33:43Z</time>
      </trkpt>
      <trkpt lat="47.11424" lon="5.59463">
        <ele>251</ele>
        <time>2019-03-06T08:33:49Z</time>
      </trkpt>
      <trkpt lat="47.11419" lon="5.59437">
        <ele>252</ele>
        <time>2019-03-06T08:34:02Z</time>
      </trkpt>
      <trkpt lat="47.1141" lon="5.59411">
        <ele>252</ele>
        <time>2019-03-06T08:34:16Z</time>
      </trkpt>
      <trkpt lat="47.11402" lon="5.59402">
        <ele>252</ele>
        <time>2019-03-06T08:34:23Z</time>
      </trkpt>
      <trkpt lat="47.11398" lon="5.59378">
        <ele>251</ele>
        <time>2019-03-06T08:34:36Z</time>
      </trkpt>
      <trkpt lat="47.11397" lon="5.59364">
        <ele>250</ele>
        <time>2019-03-06T08:34:44Z</time>
      </trkpt>
      <trkpt lat="47.11391" lon="5.59354">
        <ele>250</ele>
        <time>2019-03-06T08:34:51Z</time>
      </trkpt>
      <trkpt lat="47.1139" lon="5.5934">
        <ele>251</ele>
        <time>2019-03-06T08:34:58Z</time>
      </trkpt>
      <trkpt lat="47.11389" lon="5.59325">
        <ele>251</ele>
        <time>2019-03-06T08:35:07Z</time>
      </trkpt>
      <trkpt lat="47.1138" lon="5.59285">
        <ele>252</ele>
        <time>2019-03-06T08:35:32Z</time>
      </trkpt>
      <trkpt lat="47.11377" lon="5.5927">
        <ele>251</ele>
        <time>2019-03-06T08:35:41Z</time>
      </trkpt>
      <trkpt lat="47.11372" lon="5.59258">
        <ele>252</ele>
        <time>2019-03-06T08:35:48Z</time>
      </trkpt>
      <trkpt lat="47.11371" lon="5.59244">
        <ele>252</ele>
        <time>2019-03-06T08:35:55Z</time>
      </trkpt>
      <trkpt lat="47.11372" lon="5.59231">
        <ele>253</ele>
        <time>2019-03-06T08:36:03Z</time>
      </trkpt>
      <trkpt lat="47.11369" lon="5.59217">
        <ele>253</ele>
        <time>2019-03-06T08:36:11Z</time>
      </trkpt>
      <trkpt lat="47.11362" lon="5.59205">
        <ele>252</ele>
        <time>2019-03-06T08:36:18Z</time>
      </trkpt>
      <trkpt lat="47.11358" lon="5.59194">
        <ele>254</ele>
        <time>2019-03-06T08:36:25Z</time>
      </trkpt>
      <trkpt lat="47.11357" lon="5.5918">
        <ele>254</ele>
        <time>2019-03-06T08:36:34Z</time>
      </trkpt>
      <trkpt lat="47.11351" lon="5.59151">
        <ele>253</ele>
        <time>2019-03-06T08:36:53Z</time>
      </trkpt>
      <trkpt lat="47.11349" lon="5.59138">
        <ele>254</ele>
        <time>2019-03-06T08:37:01Z</time>
      </trkpt>
      <trkpt lat="47.11342" lon="5.59113">
        <ele>253</ele>
        <time>2019-03-06T08:37:18Z</time>
      </trkpt>
      <trkpt lat="47.11336" lon="5.591">
        <ele>252</ele>
        <time>2019-03-06T08:37:26Z</time>
      </trkpt>
      <trkpt lat="47.11333" lon="5.59086">
        <ele>252</ele>
        <time>2019-03-06T08:37:34Z</time>
      </trkpt>
      <trkpt lat="47.11331" lon="5.59072">
        <ele>252</ele>
        <time>2019-03-06T08:37:43Z</time>
      </trkpt>
      <trkpt lat="47.11328" lon="5.59044">
        <ele>254</ele>
        <time>2019-03-06T08:37:59Z</time>
      </trkpt>
      <trkpt lat="47.11324" lon="5.59032">
        <ele>252</ele>
        <time>2019-03-06T08:38:07Z</time>
      </trkpt>
      <trkpt lat="47.11322" lon="5.59017">
        <ele>253</ele>
        <time>2019-03-06T08:38:17Z</time>
      </trkpt>
      <trkpt lat="47.11317" lon="5.59005">
        <ele>252</ele>
        <time>2019-03-06T08:38:23Z</time>
      </trkpt>
      <trkpt lat="47.11317" lon="5.58992">
        <ele>253</ele>
        <time>2019-03-06T08:38:33Z</time>
      </trkpt>
      <trkpt lat="47.11306" lon="5.5898">
        <ele>254</ele>
        <time>2019-03-06T08:38:51Z</time>
      </trkpt>
      <trkpt lat="47.11294" lon="5.58979">
        <ele>253</ele>
        <time>2019-03-06T08:38:58Z</time>
      </trkpt>
      <trkpt lat="47.1127" lon="5.58986">
        <ele>251</ele>
        <time>2019-03-06T08:39:23Z</time>
      </trkpt>
      <trkpt lat="47.11261" lon="5.58989">
        <ele>251</ele>
        <time>2019-03-06T08:39:32Z</time>
      </trkpt>
      <trkpt lat="47.11256" lon="5.58992">
        <ele>250</ele>
        <time>2019-03-06T08:39:38Z</time>
      </trkpt>
      <trkpt lat="47.11237" lon="5.59002">
        <ele>251</ele>
        <time>2019-03-06T08:39:55Z</time>
      </trkpt>
      <trkpt lat="47.11232" lon="5.59004">
        <ele>251</ele>
        <time>2019-03-06T08:39:58Z</time>
      </trkpt>
      <trkpt lat="47.11228" lon="5.59005">
        <ele>251</ele>
        <time>2019-03-06T08:40:01Z</time>
      </trkpt>
      <trkpt lat="47.11223" lon="5.59008">
        <ele>251</ele>
        <time>2019-03-06T08:40:06Z</time>
      </trkpt>
      <trkpt lat="47.11215" lon="5.59006">
        <ele>250</ele>
        <time>2019-03-06T08:40:11Z</time>
      </trkpt>
      <trkpt lat="47.1121" lon="5.59008">
        <ele>250</ele>
        <time>2019-03-06T08:40:15Z</time>
      </trkpt>
      <trkpt lat="47.11206" lon="5.59011">
        <ele>250</ele>
        <time>2019-03-06T08:40:19Z</time>
      </trkpt>
      <trkpt lat="47.11201" lon="5.59013">
        <ele>250</ele>
        <time>2019-03-06T08:40:23Z</time>
      </trkpt>
      <trkpt lat="47.11197" lon="5.59017">
        <ele>250</ele>
        <time>2019-03-06T08:40:27Z</time>
      </trkpt>
      <trkpt lat="47.11192" lon="5.59021">
        <ele>250</ele>
        <time>2019-03-06T08:40:31Z</time>
      </trkpt>
      <trkpt lat="47.11188" lon="5.59022">
        <ele>251</ele>
        <time>2019-03-06T08:40:35Z</time>
      </trkpt>
      <trkpt lat="47.11173" lon="5.5903">
        <ele>251</ele>
        <time>2019-03-06T08:40:47Z</time>
      </trkpt>
      <trkpt lat="47.11164" lon="5.59032">
        <ele>252</ele>
        <time>2019-03-06T08:40:55Z</time>
      </trkpt>
      <trkpt lat="47.11154" lon="5.5903">
        <ele>252</ele>
        <time>2019-03-06T08:41:00Z</time>
      </trkpt>
      <trkpt lat="47.11147" lon="5.59037">
        <ele>252</ele>
        <time>2019-03-06T08:41:08Z</time>
      </trkpt>
      <trkpt lat="47.11138" lon="5.59046">
        <ele>251</ele>
        <time>2019-03-06T08:41:20Z</time>
      </trkpt>
      <trkpt lat="47.11134" lon="5.59048">
        <ele>251</ele>
        <time>2019-03-06T08:41:25Z</time>
      </trkpt>
      <trkpt lat="47.11133" lon="5.59035">
        <ele>248</ele>
        <time>2019-03-06T08:41:39Z</time>
      </trkpt>
      <trkpt lat="47.11133" lon="5.59028">
        <ele>248</ele>
        <time>2019-03-06T08:41:43Z</time>
      </trkpt>
      <trkpt lat="47.11132" lon="5.5902">
        <ele>248</ele>
        <time>2019-03-06T08:41:48Z</time>
      </trkpt>
      <trkpt lat="47.11129" lon="5.58995">
        <ele>249</ele>
        <time>2019-03-06T08:42:07Z</time>
      </trkpt>
      <trkpt lat="47.11125" lon="5.58983">
        <ele>249</ele>
        <time>2019-03-06T08:42:13Z</time>
      </trkpt>
      <trkpt lat="47.1112" lon="5.58977">
        <ele>248</ele>
        <time>2019-03-06T08:42:17Z</time>
      </trkpt>
      <trkpt lat="47.11119" lon="5.5897">
        <ele>248</ele>
        <time>2019-03-06T08:42:21Z</time>
      </trkpt>
      <trkpt lat="47.11117" lon="5.58958">
        <ele>249</ele>
        <time>2019-03-06T08:42:27Z</time>
      </trkpt>
      <trkpt lat="47.11115" lon="5.58944">
        <ele>249</ele>
        <time>2019-03-06T08:42:34Z</time>
      </trkpt>
      <trkpt lat="47.11115" lon="5.58933">
        <ele>248</ele>
        <time>2019-03-06T08:42:40Z</time>
      </trkpt>
      <trkpt lat="47.11111" lon="5.58927">
        <ele>248</ele>
        <time>2019-03-06T08:42:43Z</time>
      </trkpt>
      <trkpt lat="47.11107" lon="5.58912">
        <ele>247</ele>
        <time>2019-03-06T08:42:51Z</time>
      </trkpt>
      <trkpt lat="47.11105" lon="5.58906">
        <ele>248</ele>
        <time>2019-03-06T08:42:55Z</time>
      </trkpt>
      <trkpt lat="47.11093" lon="5.58881">
        <ele>246</ele>
        <time>2019-03-06T08:43:12Z</time>
      </trkpt>
      <trkpt lat="47.1109" lon="5.58867">
        <ele>246</ele>
        <time>2019-03-06T08:43:20Z</time>
      </trkpt>
      <trkpt lat="47.11088" lon="5.58861">
        <ele>245</ele>
        <time>2019-03-06T08:43:25Z</time>
      </trkpt>
      <trkpt lat="47.11087" lon="5.58845">
        <ele>245</ele>
        <time>2019-03-06T08:43:35Z</time>
      </trkpt>
      <trkpt lat="47.11087" lon="5.58838">
        <ele>246</ele>
        <time>2019-03-06T08:43:39Z</time>
      </trkpt>
      <trkpt lat="47.11087" lon="5.5883">
        <ele>246</ele>
        <time>2019-03-06T08:43:44Z</time>
      </trkpt>
      <trkpt lat="47.1108" lon="5.58802">
        <ele>246</ele>
        <time>2019-03-06T08:43:59Z</time>
      </trkpt>
      <trkpt lat="47.1108" lon="5.58794">
        <ele>246</ele>
        <time>2019-03-06T08:44:04Z</time>
      </trkpt>
      <trkpt lat="47.11078" lon="5.58788">
        <ele>245</ele>
        <time>2019-03-06T08:44:09Z</time>
      </trkpt>
      <trkpt lat="47.11075" lon="5.58778">
        <ele>245</ele>
        <time>2019-03-06T08:44:16Z</time>
      </trkpt>
      <trkpt lat="47.11073" lon="5.58771">
        <ele>244</ele>
        <time>2019-03-06T08:44:21Z</time>
      </trkpt>
      <trkpt lat="47.11071" lon="5.58765">
        <ele>244</ele>
        <time>2019-03-06T08:44:26Z</time>
      </trkpt>
      <trkpt lat="47.11068" lon="5.5876">
        <ele>244</ele>
        <time>2019-03-06T08:44:30Z</time>
      </trkpt>
      <trkpt lat="47.11066" lon="5.58753">
        <ele>243</ele>
        <time>2019-03-06T08:44:34Z</time>
      </trkpt>
      <trkpt lat="47.11064" lon="5.58747">
        <ele>244</ele>
        <time>2019-03-06T08:44:37Z</time>
      </trkpt>
      <trkpt lat="47.1106" lon="5.58734">
        <ele>242</ele>
        <time>2019-03-06T08:44:45Z</time>
      </trkpt>
      <trkpt lat="47.11059" lon="5.58727">
        <ele>242</ele>
        <time>2019-03-06T08:44:50Z</time>
      </trkpt>
      <trkpt lat="47.11057" lon="5.5872">
        <ele>241</ele>
        <time>2019-03-06T08:44:54Z</time>
      </trkpt>
      <trkpt lat="47.11057" lon="5.58705">
        <ele>241</ele>
        <time>2019-03-06T08:45:03Z</time>
      </trkpt>
      <trkpt lat="47.11053" lon="5.5869">
        <ele>240</ele>
        <time>2019-03-06T08:45:12Z</time>
      </trkpt>
      <trkpt lat="47.11051" lon="5.58683">
        <ele>240</ele>
        <time>2019-03-06T08:45:16Z</time>
      </trkpt>
      <trkpt lat="47.11048" lon="5.58677">
        <ele>240</ele>
        <time>2019-03-06T08:45:19Z</time>
      </trkpt>
      <trkpt lat="47.11047" lon="5.58669">
        <ele>240</ele>
        <time>2019-03-06T08:45:23Z</time>
      </trkpt>
      <trkpt lat="47.11047" lon="5.58661">
        <ele>239</ele>
        <time>2019-03-06T08:45:27Z</time>
      </trkpt>
      <trkpt lat="47.11045" lon="5.58654">
        <ele>240</ele>
        <time>2019-03-06T08:45:31Z</time>
      </trkpt>
      <trkpt lat="47.11044" lon="5.58648">
        <ele>240</ele>
        <time>2019-03-06T08:45:35Z</time>
      </trkpt>
      <trkpt lat="47.11041" lon="5.58634">
        <ele>240</ele>
        <time>2019-03-06T08:45:44Z</time>
      </trkpt>
      <trkpt lat="47.1104" lon="5.58627">
        <ele>240</ele>
        <time>2019-03-06T08:45:49Z</time>
      </trkpt>
      <trkpt lat="47.1104" lon="5.5862">
        <ele>240</ele>
        <time>2019-03-06T08:45:53Z</time>
      </trkpt>
      <trkpt lat="47.11038" lon="5.58614">
        <ele>239</ele>
        <time>2019-03-06T08:45:56Z</time>
      </trkpt>
      <trkpt lat="47.11035" lon="5.58608">
        <ele>239</ele>
        <time>2019-03-06T08:46:00Z</time>
      </trkpt>
      <trkpt lat="47.11034" lon="5.58597">
        <ele>239</ele>
        <time>2019-03-06T08:46:08Z</time>
      </trkpt>
      <trkpt lat="47.11031" lon="5.58591">
        <ele>239</ele>
        <time>2019-03-06T08:46:13Z</time>
      </trkpt>
      <trkpt lat="47.1103" lon="5.58583">
        <ele>239</ele>
        <time>2019-03-06T08:46:17Z</time>
      </trkpt>
      <trkpt lat="47.11025" lon="5.5857">
        <ele>237</ele>
        <time>2019-03-06T08:46:25Z</time>
      </trkpt>
      <trkpt lat="47.11023" lon="5.58563">
        <ele>237</ele>
        <time>2019-03-06T08:46:29Z</time>
      </trkpt>
      <trkpt lat="47.11019" lon="5.58556">
        <ele>236</ele>
        <time>2019-03-06T08:46:35Z</time>
      </trkpt>
      <trkpt lat="47.1102" lon="5.58547">
        <ele>236</ele>
        <time>2019-03-06T08:46:40Z</time>
      </trkpt>
      <trkpt lat="47.11019" lon="5.5854">
        <ele>236</ele>
        <time>2019-03-06T08:46:44Z</time>
      </trkpt>
      <trkpt lat="47.11016" lon="5.58534">
        <ele>235</ele>
        <time>2019-03-06T08:46:49Z</time>
      </trkpt>
      <trkpt lat="47.11014" lon="5.5852">
        <ele>236</ele>
        <time>2019-03-06T08:46:58Z</time>
      </trkpt>
      <trkpt lat="47.11012" lon="5.58514">
        <ele>235</ele>
        <time>2019-03-06T08:47:02Z</time>
      </trkpt>
      <trkpt lat="47.11011" lon="5.58507">
        <ele>236</ele>
        <time>2019-03-06T08:47:06Z</time>
      </trkpt>
      <trkpt lat="47.11009" lon="5.58501">
        <ele>237</ele>
        <time>2019-03-06T08:47:10Z</time>
      </trkpt>
      <trkpt lat="47.11003" lon="5.58498">
        <ele>236</ele>
        <time>2019-03-06T08:51:57Z</time>
      </trkpt>
      <trkpt lat="47.10998" lon="5.58499">
        <ele>236</ele>
        <time>2019-03-06T08:52:01Z</time>
      </trkpt>
      <trkpt lat="47.10992" lon="5.585">
        <ele>233</ele>
        <time>2019-03-06T08:52:06Z</time>
      </trkpt>
      <trkpt lat="47.10987" lon="5.58503">
        <ele>235</ele>
        <time>2019-03-06T08:52:11Z</time>
      </trkpt>
      <trkpt lat="47.10979" lon="5.58512">
        <ele>234</ele>
        <time>2019-03-06T08:52:20Z</time>
      </trkpt>
      <trkpt lat="47.10964" lon="5.58519">
        <ele>235</ele>
        <time>2019-03-06T08:52:32Z</time>
      </trkpt>
      <trkpt lat="47.10959" lon="5.5852">
        <ele>236</ele>
        <time>2019-03-06T08:52:35Z</time>
      </trkpt>
      <trkpt lat="47.10955" lon="5.58522">
        <ele>236</ele>
        <time>2019-03-06T08:52:39Z</time>
      </trkpt>
      <trkpt lat="47.1095" lon="5.58526">
        <ele>236</ele>
        <time>2019-03-06T08:52:44Z</time>
      </trkpt>
      <trkpt lat="47.10943" lon="5.58531">
        <ele>236</ele>
        <time>2019-03-06T08:53:00Z</time>
      </trkpt>
      <trkpt lat="47.10933" lon="5.58533">
        <ele>236</ele>
        <time>2019-03-06T08:53:08Z</time>
      </trkpt>
      <trkpt lat="47.10923" lon="5.5854">
        <ele>235</ele>
        <time>2019-03-06T08:53:16Z</time>
      </trkpt>
      <trkpt lat="47.10918" lon="5.58544">
        <ele>235</ele>
        <time>2019-03-06T08:53:21Z</time>
      </trkpt>
      <trkpt lat="47.10912" lon="5.58544">
        <ele>236</ele>
        <time>2019-03-06T08:53:24Z</time>
      </trkpt>
      <trkpt lat="47.10907" lon="5.58546">
        <ele>235</ele>
        <time>2019-03-06T08:53:28Z</time>
      </trkpt>
      <trkpt lat="47.10902" lon="5.58548">
        <ele>235</ele>
        <time>2019-03-06T08:53:32Z</time>
      </trkpt>
      <trkpt lat="47.10896" lon="5.5855">
        <ele>237</ele>
        <time>2019-03-06T08:53:36Z</time>
      </trkpt>
      <trkpt lat="47.10887" lon="5.58554">
        <ele>236</ele>
        <time>2019-03-06T08:53:43Z</time>
      </trkpt>
      <trkpt lat="47.10882" lon="5.58557">
        <ele>237</ele>
        <time>2019-03-06T08:53:47Z</time>
      </trkpt>
      <trkpt lat="47.10865" lon="5.5856">
        <ele>237</ele>
        <time>2019-03-06T08:53:59Z</time>
      </trkpt>
      <trkpt lat="47.10856" lon="5.58563">
        <ele>236</ele>
        <time>2019-03-06T08:54:06Z</time>
      </trkpt>
      <trkpt lat="47.10846" lon="5.58569">
        <ele>236</ele>
        <time>2019-03-06T08:54:13Z</time>
      </trkpt>
      <trkpt lat="47.10838" lon="5.58576">
        <ele>235</ele>
        <time>2019-03-06T08:54:22Z</time>
      </trkpt>
      <trkpt lat="47.10834" lon="5.58579">
        <ele>235</ele>
        <time>2019-03-06T08:54:26Z</time>
      </trkpt>
      <trkpt lat="47.10829" lon="5.58581">
        <ele>235</ele>
        <time>2019-03-06T08:54:30Z</time>
      </trkpt>
      <trkpt lat="47.1082" lon="5.58586">
        <ele>235</ele>
        <time>2019-03-06T08:54:38Z</time>
      </trkpt>
      <trkpt lat="47.10814" lon="5.58588">
        <ele>236</ele>
        <time>2019-03-06T08:54:43Z</time>
      </trkpt>
      <trkpt lat="47.10805" lon="5.58594">
        <ele>236</ele>
        <time>2019-03-06T08:54:51Z</time>
      </trkpt>
      <trkpt lat="47.10801" lon="5.58595">
        <ele>236</ele>
        <time>2019-03-06T08:54:55Z</time>
      </trkpt>
      <trkpt lat="47.10796" lon="5.58597">
        <ele>236</ele>
        <time>2019-03-06T08:54:59Z</time>
      </trkpt>
      <trkpt lat="47.10772" lon="5.58612">
        <ele>239</ele>
        <time>2019-03-06T08:55:20Z</time>
      </trkpt>
      <trkpt lat="47.10767" lon="5.58614">
        <ele>238</ele>
        <time>2019-03-06T08:55:24Z</time>
      </trkpt>
      <trkpt lat="47.10762" lon="5.58616">
        <ele>239</ele>
        <time>2019-03-06T08:55:28Z</time>
      </trkpt>
      <trkpt lat="47.10739" lon="5.58628">
        <ele>239</ele>
        <time>2019-03-06T08:55:49Z</time>
      </trkpt>
      <trkpt lat="47.10735" lon="5.58629">
        <ele>238</ele>
        <time>2019-03-06T08:55:53Z</time>
      </trkpt>
      <trkpt lat="47.1072" lon="5.58635">
        <ele>238</ele>
        <time>2019-03-06T08:56:05Z</time>
      </trkpt>
      <trkpt lat="47.10715" lon="5.58636">
        <ele>238</ele>
        <time>2019-03-06T08:56:10Z</time>
      </trkpt>
      <trkpt lat="47.1071" lon="5.58632">
        <ele>238</ele>
        <time>2019-03-06T08:56:15Z</time>
      </trkpt>
      <trkpt lat="47.10706" lon="5.58628">
        <ele>238</ele>
        <time>2019-03-06T08:56:20Z</time>
      </trkpt>
      <trkpt lat="47.10706" lon="5.58618">
        <ele>239</ele>
        <time>2019-03-06T08:56:27Z</time>
      </trkpt>
      <trkpt lat="47.10708" lon="5.58605">
        <ele>240</ele>
        <time>2019-03-06T08:56:35Z</time>
      </trkpt>
      <trkpt lat="47.10709" lon="5.58597">
        <ele>239</ele>
        <time>2019-03-06T08:56:39Z</time>
      </trkpt>
      <trkpt lat="47.10711" lon="5.58582">
        <ele>240</ele>
        <time>2019-03-06T08:56:48Z</time>
      </trkpt>
      <trkpt lat="47.10713" lon="5.58567">
        <ele>239</ele>
        <time>2019-03-06T08:56:58Z</time>
      </trkpt>
      <trkpt lat="47.10714" lon="5.58561">
        <ele>240</ele>
        <time>2019-03-06T08:57:02Z</time>
      </trkpt>
      <trkpt lat="47.10715" lon="5.58537">
        <ele>241</ele>
        <time>2019-03-06T08:57:14Z</time>
      </trkpt>
      <trkpt lat="47.10714" lon="5.58529">
        <ele>241</ele>
        <time>2019-03-06T08:57:19Z</time>
      </trkpt>
      <trkpt lat="47.10715" lon="5.58494">
        <ele>238</ele>
        <time>2019-03-06T08:57:37Z</time>
      </trkpt>
      <trkpt lat="47.10717" lon="5.58471">
        <ele>237</ele>
        <time>2019-03-06T08:57:49Z</time>
      </trkpt>
      <trkpt lat="47.10718" lon="5.58463">
        <ele>237</ele>
        <time>2019-03-06T08:57:53Z</time>
      </trkpt>
      <trkpt lat="47.10718" lon="5.58456">
        <ele>237</ele>
        <time>2019-03-06T08:57:57Z</time>
      </trkpt>
      <trkpt lat="47.10719" lon="5.58448">
        <ele>237</ele>
        <time>2019-03-06T08:58:01Z</time>
      </trkpt>
      <trkpt lat="47.10721" lon="5.58441">
        <ele>237</ele>
        <time>2019-03-06T08:58:05Z</time>
      </trkpt>
      <trkpt lat="47.10723" lon="5.58427">
        <ele>236</ele>
        <time>2019-03-06T08:58:13Z</time>
      </trkpt>
      <trkpt lat="47.10723" lon="5.58421">
        <ele>236</ele>
        <time>2019-03-06T08:58:16Z</time>
      </trkpt>
      <trkpt lat="47.10725" lon="5.58391">
        <ele>236</ele>
        <time>2019-03-06T08:58:30Z</time>
      </trkpt>
      <trkpt lat="47.10726" lon="5.58384">
        <ele>235</ele>
        <time>2019-03-06T08:58:34Z</time>
      </trkpt>
      <trkpt lat="47.10731" lon="5.58363">
        <ele>236</ele>
        <time>2019-03-06T08:58:47Z</time>
      </trkpt>
      <trkpt lat="47.10733" lon="5.58349">
        <ele>235</ele>
        <time>2019-03-06T08:58:56Z</time>
      </trkpt>
      <trkpt lat="47.10733" lon="5.58341">
        <ele>235</ele>
        <time>2019-03-06T08:59:00Z</time>
      </trkpt>
      <trkpt lat="47.10736" lon="5.58319">
        <ele>235</ele>
        <time>2019-03-06T08:59:13Z</time>
      </trkpt>
      <trkpt lat="47.10737" lon="5.58304">
        <ele>234</ele>
        <time>2019-03-06T08:59:21Z</time>
      </trkpt>
      <trkpt lat="47.10739" lon="5.58282">
        <ele>235</ele>
        <time>2019-03-06T08:59:32Z</time>
      </trkpt>
      <trkpt lat="47.10739" lon="5.58252">
        <ele>233</ele>
        <time>2019-03-06T08:59:48Z</time>
      </trkpt>
      <trkpt lat="47.10738" lon="5.58228">
        <ele>234</ele>
        <time>2019-03-06T09:00:00Z</time>
      </trkpt>
      <trkpt lat="47.10737" lon="5.58221">
        <ele>233</ele>
        <time>2019-03-06T09:00:04Z</time>
      </trkpt>
      <trkpt lat="47.10735" lon="5.58214">
        <ele>233</ele>
        <time>2019-03-06T09:00:08Z</time>
      </trkpt>
      <trkpt lat="47.10733" lon="5.58199">
        <ele>233</ele>
        <time>2019-03-06T09:00:16Z</time>
      </trkpt>
      <trkpt lat="47.10732" lon="5.58192">
        <ele>233</ele>
        <time>2019-03-06T09:00:20Z</time>
      </trkpt>
      <trkpt lat="47.10731" lon="5.58184">
        <ele>233</ele>
        <time>2019-03-06T09:00:24Z</time>
      </trkpt>
      <trkpt lat="47.10731" lon="5.58176">
        <ele>232</ele>
        <time>2019-03-06T09:00:28Z</time>
      </trkpt>
      <trkpt lat="47.10729" lon="5.58169">
        <ele>232</ele>
        <time>2019-03-06T09:00:32Z</time>
      </trkpt>
      <trkpt lat="47.10726" lon="5.58129">
        <ele>228</ele>
        <time>2019-03-06T09:00:55Z</time>
      </trkpt>
      <trkpt lat="47.10725" lon="5.58121">
        <ele>228</ele>
        <time>2019-03-06T09:00:59Z</time>
      </trkpt>
      <trkpt lat="47.10723" lon="5.58107">
        <ele>228</ele>
        <time>2019-03-06T09:01:07Z</time>
      </trkpt>
      <trkpt lat="47.10722" lon="5.58093">
        <ele>228</ele>
        <time>2019-03-06T09:01:15Z</time>
      </trkpt>
      <trkpt lat="47.10722" lon="5.58086">
        <ele>228</ele>
        <time>2019-03-06T09:01:20Z</time>
      </trkpt>
      <trkpt lat="47.10723" lon="5.58079">
        <ele>228</ele>
        <time>2019-03-06T09:01:24Z</time>
      </trkpt>
      <trkpt lat="47.10722" lon="5.58049">
        <ele>228</ele>
        <time>2019-03-06T09:01:40Z</time>
      </trkpt>
      <trkpt lat="47.10721" lon="5.5804">
        <ele>227</ele>
        <time>2019-03-06T09:01:44Z</time>
      </trkpt>
      <trkpt lat="47.1072" lon="5.58032">
        <ele>227</ele>
        <time>2019-03-06T09:01:48Z</time>
      </trkpt>
      <trkpt lat="47.1072" lon="5.58025">
        <ele>227</ele>
        <time>2019-03-06T09:01:51Z</time>
      </trkpt>
      <trkpt lat="47.1072" lon="5.58018">
        <ele>227</ele>
        <time>2019-03-06T09:01:55Z</time>
      </trkpt>
      <trkpt lat="47.10722" lon="5.57995">
        <ele>228</ele>
        <time>2019-03-06T09:02:07Z</time>
      </trkpt>
      <trkpt lat="47.10724" lon="5.57981">
        <ele>228</ele>
        <time>2019-03-06T09:02:15Z</time>
      </trkpt>
      <trkpt lat="47.10723" lon="5.57974">
        <ele>228</ele>
        <time>2019-03-06T09:02:19Z</time>
      </trkpt>
      <trkpt lat="47.10726" lon="5.57945">
        <ele>230</ele>
        <time>2019-03-06T09:02:36Z</time>
      </trkpt>
      <trkpt lat="47.10723" lon="5.57939">
        <ele>230</ele>
        <time>2019-03-06T09:02:41Z</time>
      </trkpt>
      <trkpt lat="47.10714" lon="5.57936">
        <ele>229</ele>
        <time>2019-03-06T09:02:49Z</time>
      </trkpt>
      <trkpt lat="47.10708" lon="5.57935">
        <ele>229</ele>
        <time>2019-03-06T09:02:53Z</time>
      </trkpt>
      <trkpt lat="47.10703" lon="5.57933">
        <ele>229</ele>
        <time>2019-03-06T09:02:58Z</time>
      </trkpt>
      <trkpt lat="47.10693" lon="5.57931">
        <ele>229</ele>
        <time>2019-03-06T09:03:08Z</time>
      </trkpt>
      <trkpt lat="47.10688" lon="5.57928">
        <ele>228</ele>
        <time>2019-03-06T09:03:12Z</time>
      </trkpt>
      <trkpt lat="47.1068" lon="5.5792">
        <ele>228</ele>
        <time>2019-03-06T09:03:20Z</time>
      </trkpt>
      <trkpt lat="47.10676" lon="5.57917">
        <ele>229</ele>
        <time>2019-03-06T09:03:24Z</time>
      </trkpt>
      <trkpt lat="47.10636" lon="5.57882">
        <ele>228</ele>
        <time>2019-03-06T09:04:02Z</time>
      </trkpt>
      <trkpt lat="47.10631" lon="5.57872">
        <ele>228</ele>
        <time>2019-03-06T09:04:11Z</time>
      </trkpt>
      <trkpt lat="47.10621" lon="5.57863">
        <ele>227</ele>
        <time>2019-03-06T09:04:20Z</time>
      </trkpt>
      <trkpt lat="47.10616" lon="5.57854">
        <ele>227</ele>
        <time>2019-03-06T09:04:24Z</time>
      </trkpt>
      <trkpt lat="47.10608" lon="5.57845">
        <ele>226</ele>
        <time>2019-03-06T09:04:29Z</time>
      </trkpt>
      <trkpt lat="47.106" lon="5.57834">
        <ele>226</ele>
        <time>2019-03-06T09:04:39Z</time>
      </trkpt>
      <trkpt lat="47.10585" lon="5.57813">
        <ele>227</ele>
        <time>2019-03-06T09:04:57Z</time>
      </trkpt>
      <trkpt lat="47.10578" lon="5.57807">
        <ele>227</ele>
        <time>2019-03-06T09:05:08Z</time>
      </trkpt>
      <trkpt lat="47.10571" lon="5.57799">
        <ele>228</ele>
        <time>2019-03-06T09:05:26Z</time>
      </trkpt>
      <trkpt lat="47.10559" lon="5.57788">
        <ele>226</ele>
        <time>2019-03-06T09:05:51Z</time>
      </trkpt>
      <trkpt lat="47.10553" lon="5.57776">
        <ele>226</ele>
        <time>2019-03-06T09:05:56Z</time>
      </trkpt>
      <trkpt lat="47.10546" lon="5.57766">
        <ele>227</ele>
        <time>2019-03-06T09:06:02Z</time>
      </trkpt>
      <trkpt lat="47.1054" lon="5.57755">
        <ele>229</ele>
        <time>2019-03-06T09:06:09Z</time>
      </trkpt>
      <trkpt lat="47.1053" lon="5.57747">
        <ele>230</ele>
        <time>2019-03-06T09:06:24Z</time>
      </trkpt>
      <trkpt lat="47.10507" lon="5.57718">
        <ele>231</ele>
        <time>2019-03-06T09:06:45Z</time>
      </trkpt>
      <trkpt lat="47.105" lon="5.57708">
        <ele>231</ele>
        <time>2019-03-06T09:06:53Z</time>
      </trkpt>
      <trkpt lat="47.10488" lon="5.57697">
        <ele>231</ele>
        <time>2019-03-06T09:07:10Z</time>
      </trkpt>
      <trkpt lat="47.10481" lon="5.57686">
        <ele>231</ele>
        <time>2019-03-06T09:07:18Z</time>
      </trkpt>
      <trkpt lat="47.10473" lon="5.57677">
        <ele>232</ele>
        <time>2019-03-06T09:07:25Z</time>
      </trkpt>
      <trkpt lat="47.10468" lon="5.57666">
        <ele>232</ele>
        <time>2019-03-06T09:07:30Z</time>
      </trkpt>
      <trkpt lat="47.10464" lon="5.57654">
        <ele>233</ele>
        <time>2019-03-06T09:07:38Z</time>
      </trkpt>
      <trkpt lat="47.10457" lon="5.57641">
        <ele>233</ele>
        <time>2019-03-06T09:07:51Z</time>
      </trkpt>
      <trkpt lat="47.10451" lon="5.57629">
        <ele>234</ele>
        <time>2019-03-06T09:08:00Z</time>
      </trkpt>
      <trkpt lat="47.10444" lon="5.5762">
        <ele>233</ele>
        <time>2019-03-06T09:08:08Z</time>
      </trkpt>
      <trkpt lat="47.10416" lon="5.57564">
        <ele>236</ele>
        <time>2019-03-06T09:08:41Z</time>
      </trkpt>
      <trkpt lat="47.10411" lon="5.57554">
        <ele>236</ele>
        <time>2019-03-06T09:08:48Z</time>
      </trkpt>
      <trkpt lat="47.10412" lon="5.57549">
        <ele>237</ele>
        <time>2019-03-06T09:10:23Z</time>
      </trkpt>
      <trkpt lat="47.10415" lon="5.57538">
        <ele>238</ele>
        <time>2019-03-06T09:13:08Z</time>
      </trkpt>
      <trkpt lat="47.10413" lon="5.57542">
        <ele>237</ele>
        <time>2019-03-06T09:13:46Z</time>
      </trkpt>
      <trkpt lat="47.10409" lon="5.57542">
        <ele>237</ele>
        <time>2019-03-06T09:13:58Z</time>
      </trkpt>
      <trkpt lat="47.10408" lon="5.57544">
        <ele>235</ele>
        <time>2019-03-06T09:15:53Z</time>
      </trkpt>
      <trkpt lat="47.10402" lon="5.57538">
        <ele>232</ele>
        <time>2019-03-06T09:16:09Z</time>
      </trkpt>
      <trkpt lat="47.10398" lon="5.57535">
        <ele>233</ele>
        <time>2019-03-06T09:16:12Z</time>
      </trkpt>
      <trkpt lat="47.10393" lon="5.57522">
        <ele>236</ele>
        <time>2019-03-06T09:16:20Z</time>
      </trkpt>
      <trkpt lat="47.10389" lon="5.57515">
        <ele>236</ele>
        <time>2019-03-06T09:16:24Z</time>
      </trkpt>
      <trkpt lat="47.10383" lon="5.57504">
        <ele>237</ele>
        <time>2019-03-06T09:16:31Z</time>
      </trkpt>
      <trkpt lat="47.10379" lon="5.57498">
        <ele>236</ele>
        <time>2019-03-06T09:16:34Z</time>
      </trkpt>
      <trkpt lat="47.10373" lon="5.57489">
        <ele>235</ele>
        <time>2019-03-06T09:16:42Z</time>
      </trkpt>
      <trkpt lat="47.10371" lon="5.57483">
        <ele>235</ele>
        <time>2019-03-06T09:16:46Z</time>
      </trkpt>
      <trkpt lat="47.10364" lon="5.57472">
        <ele>236</ele>
        <time>2019-03-06T09:16:54Z</time>
      </trkpt>
      <trkpt lat="47.1036" lon="5.57466">
        <ele>236</ele>
        <time>2019-03-06T09:16:58Z</time>
      </trkpt>
      <trkpt lat="47.1035" lon="5.57451">
        <ele>237</ele>
        <time>2019-03-06T09:17:10Z</time>
      </trkpt>
      <trkpt lat="47.10346" lon="5.57444">
        <ele>238</ele>
        <time>2019-03-06T09:17:15Z</time>
      </trkpt>
      <trkpt lat="47.10344" lon="5.57438">
        <ele>238</ele>
        <time>2019-03-06T09:17:19Z</time>
      </trkpt>
      <trkpt lat="47.10341" lon="5.57433">
        <ele>239</ele>
        <time>2019-03-06T09:17:23Z</time>
      </trkpt>
      <trkpt lat="47.10338" lon="5.57426">
        <ele>239</ele>
        <time>2019-03-06T09:17:28Z</time>
      </trkpt>
      <trkpt lat="47.10336" lon="5.5742">
        <ele>240</ele>
        <time>2019-03-06T09:17:32Z</time>
      </trkpt>
      <trkpt lat="47.10316" lon="5.57387">
        <ele>240</ele>
        <time>2019-03-06T09:18:03Z</time>
      </trkpt>
      <trkpt lat="47.10312" lon="5.57379">
        <ele>240</ele>
        <time>2019-03-06T09:18:07Z</time>
      </trkpt>
      <trkpt lat="47.10309" lon="5.57373">
        <ele>240</ele>
        <time>2019-03-06T09:18:11Z</time>
      </trkpt>
      <trkpt lat="47.10291" lon="5.57339">
        <ele>239</ele>
        <time>2019-03-06T09:18:35Z</time>
      </trkpt>
      <trkpt lat="47.10285" lon="5.57329">
        <ele>239</ele>
        <time>2019-03-06T09:18:43Z</time>
      </trkpt>
      <trkpt lat="47.10255" lon="5.57273">
        <ele>237</ele>
        <time>2019-03-06T09:19:20Z</time>
      </trkpt>
      <trkpt lat="47.10253" lon="5.57267">
        <ele>237</ele>
        <time>2019-03-06T09:19:24Z</time>
      </trkpt>
      <trkpt lat="47.10236" lon="5.57236">
        <ele>237</ele>
        <time>2019-03-06T09:19:45Z</time>
      </trkpt>
      <trkpt lat="47.10229" lon="5.57225">
        <ele>236</ele>
        <time>2019-03-06T09:19:53Z</time>
      </trkpt>
      <trkpt lat="47.10226" lon="5.57219">
        <ele>236</ele>
        <time>2019-03-06T09:19:57Z</time>
      </trkpt>
      <trkpt lat="47.1022" lon="5.57206">
        <ele>235</ele>
        <time>2019-03-06T09:20:05Z</time>
      </trkpt>
      <trkpt lat="47.10217" lon="5.572">
        <ele>235</ele>
        <time>2019-03-06T09:20:09Z</time>
      </trkpt>
      <trkpt lat="47.10213" lon="5.57194">
        <ele>235</ele>
        <time>2019-03-06T09:20:14Z</time>
      </trkpt>
      <trkpt lat="47.1021" lon="5.57189">
        <ele>235</ele>
        <time>2019-03-06T09:20:18Z</time>
      </trkpt>
      <trkpt lat="47.10207" lon="5.57183">
        <ele>235</ele>
        <time>2019-03-06T09:20:22Z</time>
      </trkpt>
      <trkpt lat="47.10195" lon="5.57159">
        <ele>235</ele>
        <time>2019-03-06T09:20:38Z</time>
      </trkpt>
      <trkpt lat="47.10176" lon="5.57121">
        <ele>234</ele>
        <time>2019-03-06T09:21:03Z</time>
      </trkpt>
      <trkpt lat="47.10162" lon="5.57098">
        <ele>231</ele>
        <time>2019-03-06T09:21:23Z</time>
      </trkpt>
      <trkpt lat="47.10141" lon="5.57053">
        <ele>228</ele>
        <time>2019-03-06T09:21:54Z</time>
      </trkpt>
      <trkpt lat="47.10137" lon="5.57048">
        <ele>228</ele>
        <time>2019-03-06T09:21:58Z</time>
      </trkpt>
      <trkpt lat="47.10134" lon="5.57041">
        <ele>228</ele>
        <time>2019-03-06T09:22:02Z</time>
      </trkpt>
      <trkpt lat="47.10132" lon="5.57035">
        <ele>228</ele>
        <time>2019-03-06T09:22:06Z</time>
      </trkpt>
      <trkpt lat="47.10129" lon="5.5703">
        <ele>228</ele>
        <time>2019-03-06T09:22:10Z</time>
      </trkpt>
      <trkpt lat="47.10105" lon="5.56981">
        <ele>227</ele>
        <time>2019-03-06T09:22:42Z</time>
      </trkpt>
      <trkpt lat="47.10102" lon="5.56974">
        <ele>227</ele>
        <time>2019-03-06T09:22:47Z</time>
      </trkpt>
      <trkpt lat="47.10099" lon="5.56968">
        <ele>227</ele>
        <time>2019-03-06T09:22:51Z</time>
      </trkpt>
      <trkpt lat="47.10098" lon="5.56961">
        <ele>227</ele>
        <time>2019-03-06T09:22:56Z</time>
      </trkpt>
      <trkpt lat="47.10093" lon="5.5695">
        <ele>225</ele>
        <time>2019-03-06T09:23:05Z</time>
      </trkpt>
      <trkpt lat="47.10091" lon="5.56944">
        <ele>225</ele>
        <time>2019-03-06T09:23:09Z</time>
      </trkpt>
      <trkpt lat="47.10072" lon="5.56914">
        <ele>224</ele>
        <time>2019-03-06T09:23:33Z</time>
      </trkpt>
      <trkpt lat="47.10068" lon="5.56909">
        <ele>224</ele>
        <time>2019-03-06T09:23:37Z</time>
      </trkpt>
      <trkpt lat="47.10063" lon="5.56908">
        <ele>224</ele>
        <time>2019-03-06T09:23:41Z</time>
      </trkpt>
      <trkpt lat="47.10059" lon="5.56907">
        <ele>223</ele>
        <time>2019-03-06T09:23:49Z</time>
      </trkpt>
      <trkpt lat="47.10059" lon="5.56915">
        <ele>220</ele>
        <time>2019-03-06T09:24:13Z</time>
      </trkpt>
      <trkpt lat="47.10054" lon="5.56912">
        <ele>218</ele>
        <time>2019-03-06T09:25:46Z</time>
      </trkpt>
      <trkpt lat="47.10058" lon="5.56907">
        <ele>219</ele>
        <time>2019-03-06T09:26:28Z</time>
      </trkpt>
      <trkpt lat="47.10057" lon="5.56907">
        <ele>220</ele>
        <time>2019-03-06T09:27:16Z</time>
      </trkpt>
      <trkpt lat="47.1007" lon="5.56899">
        <ele>211</ele>
        <time>2019-03-06T09:28:28Z</time>
      </trkpt>
      <trkpt lat="47.10075" lon="5.56891">
        <ele>212</ele>
        <time>2019-03-06T09:28:36Z</time>
      </trkpt>
      <trkpt lat="47.10079" lon="5.56885">
        <ele>213</ele>
        <time>2019-03-06T09:28:40Z</time>
      </trkpt>
      <trkpt lat="47.10083" lon="5.5688">
        <ele>214</ele>
        <time>2019-03-06T09:28:45Z</time>
      </trkpt>
      <trkpt lat="47.10089" lon="5.56868">
        <ele>214</ele>
        <time>2019-03-06T09:28:53Z</time>
      </trkpt>
      <trkpt lat="47.10092" lon="5.56862">
        <ele>214</ele>
        <time>2019-03-06T09:28:57Z</time>
      </trkpt>
      <trkpt lat="47.10094" lon="5.56856">
        <ele>215</ele>
        <time>2019-03-06T09:29:02Z</time>
      </trkpt>
      <trkpt lat="47.10098" lon="5.5685">
        <ele>215</ele>
        <time>2019-03-06T09:29:06Z</time>
      </trkpt>
      <trkpt lat="47.10107" lon="5.56839">
        <ele>214</ele>
        <time>2019-03-06T09:29:14Z</time>
      </trkpt>
      <trkpt lat="47.10115" lon="5.5683">
        <ele>215</ele>
        <time>2019-03-06T09:29:22Z</time>
      </trkpt>
      <trkpt lat="47.10122" lon="5.56819">
        <ele>214</ele>
        <time>2019-03-06T09:29:30Z</time>
      </trkpt>
      <trkpt lat="47.10126" lon="5.56813">
        <ele>214</ele>
        <time>2019-03-06T09:29:34Z</time>
      </trkpt>
      <trkpt lat="47.10129" lon="5.56807">
        <ele>214</ele>
        <time>2019-03-06T09:29:38Z</time>
      </trkpt>
      <trkpt lat="47.10133" lon="5.56801">
        <ele>214</ele>
        <time>2019-03-06T09:29:42Z</time>
      </trkpt>
      <trkpt lat="47.10137" lon="5.56796">
        <ele>214</ele>
        <time>2019-03-06T09:29:46Z</time>
      </trkpt>
      <trkpt lat="47.10144" lon="5.56785">
        <ele>215</ele>
        <time>2019-03-06T09:29:55Z</time>
      </trkpt>
      <trkpt lat="47.10154" lon="5.56767">
        <ele>214</ele>
        <time>2019-03-06T09:30:06Z</time>
      </trkpt>
      <trkpt lat="47.10156" lon="5.5676">
        <ele>214</ele>
        <time>2019-03-06T09:30:10Z</time>
      </trkpt>
      <trkpt lat="47.10159" lon="5.56753">
        <ele>214</ele>
        <time>2019-03-06T09:30:14Z</time>
      </trkpt>
      <trkpt lat="47.10162" lon="5.56747">
        <ele>214</ele>
        <time>2019-03-06T09:30:17Z</time>
      </trkpt>
      <trkpt lat="47.10165" lon="5.56741">
        <ele>214</ele>
        <time>2019-03-06T09:30:21Z</time>
      </trkpt>
      <trkpt lat="47.1017" lon="5.56727">
        <ele>214</ele>
        <time>2019-03-06T09:30:29Z</time>
      </trkpt>
      <trkpt lat="47.10172" lon="5.5672">
        <ele>214</ele>
        <time>2019-03-06T09:30:33Z</time>
      </trkpt>
      <trkpt lat="47.1018" lon="5.56701">
        <ele>215</ele>
        <time>2019-03-06T09:30:44Z</time>
      </trkpt>
      <trkpt lat="47.10181" lon="5.56695">
        <ele>215</ele>
        <time>2019-03-06T09:30:48Z</time>
      </trkpt>
      <trkpt lat="47.10192" lon="5.56662">
        <ele>215</ele>
        <time>2019-03-06T09:31:08Z</time>
      </trkpt>
      <trkpt lat="47.10201" lon="5.56645">
        <ele>217</ele>
        <time>2019-03-06T09:31:21Z</time>
      </trkpt>
      <trkpt lat="47.10208" lon="5.56634">
        <ele>217</ele>
        <time>2019-03-06T09:31:29Z</time>
      </trkpt>
      <trkpt lat="47.10242" lon="5.56609">
        <ele>217</ele>
        <time>2019-03-06T09:32:01Z</time>
      </trkpt>
      <trkpt lat="47.10247" lon="5.56606">
        <ele>217</ele>
        <time>2019-03-06T09:32:05Z</time>
      </trkpt>
      <trkpt lat="47.10252" lon="5.56603">
        <ele>218</ele>
        <time>2019-03-06T09:32:10Z</time>
      </trkpt>
      <trkpt lat="47.10269" lon="5.56587">
        <ele>219</ele>
        <time>2019-03-06T09:32:25Z</time>
      </trkpt>
      <trkpt lat="47.10303" lon="5.56552">
        <ele>223</ele>
        <time>2019-03-06T09:32:57Z</time>
      </trkpt>
      <trkpt lat="47.10307" lon="5.56548">
        <ele>223</ele>
        <time>2019-03-06T09:33:01Z</time>
      </trkpt>
      <trkpt lat="47.10316" lon="5.5654">
        <ele>224</ele>
        <time>2019-03-06T09:33:10Z</time>
      </trkpt>
      <trkpt lat="47.10355" lon="5.5652">
        <ele>226</ele>
        <time>2019-03-06T09:33:42Z</time>
      </trkpt>
      <trkpt lat="47.1036" lon="5.56518">
        <ele>226</ele>
        <time>2019-03-06T09:33:46Z</time>
      </trkpt>
      <trkpt lat="47.10365" lon="5.56513">
        <ele>228</ele>
        <time>2019-03-06T09:33:52Z</time>
      </trkpt>
      <trkpt lat="47.10375" lon="5.56507">
        <ele>227</ele>
        <time>2019-03-06T09:33:59Z</time>
      </trkpt>
      <trkpt lat="47.10379" lon="5.56503">
        <ele>228</ele>
        <time>2019-03-06T09:34:03Z</time>
      </trkpt>
      <trkpt lat="47.10382" lon="5.56498">
        <ele>228</ele>
        <time>2019-03-06T09:34:07Z</time>
      </trkpt>
      <trkpt lat="47.1039" lon="5.56488">
        <ele>229</ele>
        <time>2019-03-06T09:34:16Z</time>
      </trkpt>
      <trkpt lat="47.10394" lon="5.56484">
        <ele>229</ele>
        <time>2019-03-06T09:34:20Z</time>
      </trkpt>
      <trkpt lat="47.10394" lon="5.56471">
        <ele>229</ele>
        <time>2019-03-06T09:34:30Z</time>
      </trkpt>
      <trkpt lat="47.10395" lon="5.56464">
        <ele>229</ele>
        <time>2019-03-06T09:34:34Z</time>
      </trkpt>
      <trkpt lat="47.10397" lon="5.56456">
        <ele>229</ele>
        <time>2019-03-06T09:34:39Z</time>
      </trkpt>
      <trkpt lat="47.10403" lon="5.56437">
        <ele>228</ele>
        <time>2019-03-06T09:34:51Z</time>
      </trkpt>
      <trkpt lat="47.10404" lon="5.5643">
        <ele>228</ele>
        <time>2019-03-06T09:34:56Z</time>
      </trkpt>
      <trkpt lat="47.10405" lon="5.56422">
        <ele>228</ele>
        <time>2019-03-06T09:35:01Z</time>
      </trkpt>
      <trkpt lat="47.1041" lon="5.56397">
        <ele>227</ele>
        <time>2019-03-06T09:35:19Z</time>
      </trkpt>
      <trkpt lat="47.10412" lon="5.56369">
        <ele>225</ele>
        <time>2019-03-06T09:35:36Z</time>
      </trkpt>
      <trkpt lat="47.10413" lon="5.56354">
        <ele>226</ele>
        <time>2019-03-06T09:35:46Z</time>
      </trkpt>
      <trkpt lat="47.10414" lon="5.56347">
        <ele>225</ele>
        <time>2019-03-06T09:35:50Z</time>
      </trkpt>
      <trkpt lat="47.10419" lon="5.56333">
        <ele>225</ele>
        <time>2019-03-06T09:36:00Z</time>
      </trkpt>
      <trkpt lat="47.10423" lon="5.56327">
        <ele>224</ele>
        <time>2019-03-06T09:36:05Z</time>
      </trkpt>
      <trkpt lat="47.10433" lon="5.56324">
        <ele>224</ele>
        <time>2019-03-06T09:36:13Z</time>
      </trkpt>
      <trkpt lat="47.10438" lon="5.56325">
        <ele>223</ele>
        <time>2019-03-06T09:36:17Z</time>
      </trkpt>
      <trkpt lat="47.10443" lon="5.56325">
        <ele>223</ele>
        <time>2019-03-06T09:36:21Z</time>
      </trkpt>
      <trkpt lat="47.10448" lon="5.56327">
        <ele>223</ele>
        <time>2019-03-06T09:36:25Z</time>
      </trkpt>
      <trkpt lat="47.10453" lon="5.56329">
        <ele>223</ele>
        <time>2019-03-06T09:36:28Z</time>
      </trkpt>
      <trkpt lat="47.10458" lon="5.56329">
        <ele>223</ele>
        <time>2019-03-06T09:36:31Z</time>
      </trkpt>
      <trkpt lat="47.10472" lon="5.56337">
        <ele>223</ele>
        <time>2019-03-06T09:36:44Z</time>
      </trkpt>
      <trkpt lat="47.10481" lon="5.56342">
        <ele>224</ele>
        <time>2019-03-06T09:36:51Z</time>
      </trkpt>
      <trkpt lat="47.10485" lon="5.56344">
        <ele>223</ele>
        <time>2019-03-06T09:36:55Z</time>
      </trkpt>
      <trkpt lat="47.1049" lon="5.56347">
        <ele>223</ele>
        <time>2019-03-06T09:37:00Z</time>
      </trkpt>
      <trkpt lat="47.10496" lon="5.56351">
        <ele>223</ele>
        <time>2019-03-06T09:37:07Z</time>
      </trkpt>
      <trkpt lat="47.10501" lon="5.56354">
        <ele>223</ele>
        <time>2019-03-06T09:37:11Z</time>
      </trkpt>
      <trkpt lat="47.10509" lon="5.56361">
        <ele>225</ele>
        <time>2019-03-06T09:37:18Z</time>
      </trkpt>
      <trkpt lat="47.10527" lon="5.56373">
        <ele>226</ele>
        <time>2019-03-06T09:37:34Z</time>
      </trkpt>
      <trkpt lat="47.10547" lon="5.56384">
        <ele>226</ele>
        <time>2019-03-06T09:37:50Z</time>
      </trkpt>
      <trkpt lat="47.10563" lon="5.564">
        <ele>227</ele>
        <time>2019-03-06T09:38:07Z</time>
      </trkpt>
      <trkpt lat="47.10568" lon="5.56402">
        <ele>227</ele>
        <time>2019-03-06T09:38:11Z</time>
      </trkpt>
      <trkpt lat="47.10572" lon="5.56401">
        <ele>227</ele>
        <time>2019-03-06T09:38:15Z</time>
      </trkpt>
      <trkpt lat="47.10577" lon="5.56396">
        <ele>227</ele>
        <time>2019-03-06T09:38:20Z</time>
      </trkpt>
      <trkpt lat="47.10581" lon="5.56392">
        <ele>227</ele>
        <time>2019-03-06T09:38:24Z</time>
      </trkpt>
      <trkpt lat="47.10584" lon="5.56387">
        <ele>226</ele>
        <time>2019-03-06T09:38:28Z</time>
      </trkpt>
      <trkpt lat="47.10588" lon="5.56381">
        <ele>226</ele>
        <time>2019-03-06T09:38:33Z</time>
      </trkpt>
      <trkpt lat="47.10592" lon="5.56377">
        <ele>226</ele>
        <time>2019-03-06T09:38:37Z</time>
      </trkpt>
      <trkpt lat="47.10601" lon="5.56362">
        <ele>226</ele>
        <time>2019-03-06T09:38:54Z</time>
      </trkpt>
      <trkpt lat="47.10609" lon="5.56351">
        <ele>225</ele>
        <time>2019-03-06T09:39:03Z</time>
      </trkpt>
      <trkpt lat="47.10622" lon="5.56338">
        <ele>224</ele>
        <time>2019-03-06T09:39:15Z</time>
      </trkpt>
      <trkpt lat="47.10633" lon="5.56324">
        <ele>224</ele>
        <time>2019-03-06T09:39:27Z</time>
      </trkpt>
      <trkpt lat="47.10644" lon="5.56308">
        <ele>223</ele>
        <time>2019-03-06T09:39:41Z</time>
      </trkpt>
      <trkpt lat="47.10646" lon="5.56302">
        <ele>222</ele>
        <time>2019-03-06T09:39:46Z</time>
      </trkpt>
      <trkpt lat="47.10653" lon="5.5629">
        <ele>222</ele>
        <time>2019-03-06T09:39:56Z</time>
      </trkpt>
      <trkpt lat="47.10657" lon="5.56285">
        <ele>221</ele>
        <time>2019-03-06T09:40:00Z</time>
      </trkpt>
      <trkpt lat="47.10669" lon="5.5627">
        <ele>221</ele>
        <time>2019-03-06T09:40:13Z</time>
      </trkpt>
      <trkpt lat="47.10676" lon="5.56259">
        <ele>219</ele>
        <time>2019-03-06T09:40:22Z</time>
      </trkpt>
      <trkpt lat="47.10681" lon="5.56253">
        <ele>219</ele>
        <time>2019-03-06T09:40:26Z</time>
      </trkpt>
      <trkpt lat="47.10693" lon="5.56238">
        <ele>216</ele>
        <time>2019-03-06T09:40:38Z</time>
      </trkpt>
      <trkpt lat="47.10702" lon="5.56229">
        <ele>215</ele>
        <time>2019-03-06T09:40:46Z</time>
      </trkpt>
      <trkpt lat="47.1073" lon="5.56199">
        <ele>210</ele>
        <time>2019-03-06T09:41:17Z</time>
      </trkpt>
      <trkpt lat="47.10734" lon="5.56195">
        <ele>211</ele>
        <time>2019-03-06T09:41:21Z</time>
      </trkpt>
      <trkpt lat="47.10739" lon="5.56192">
        <ele>210</ele>
        <time>2019-03-06T09:41:25Z</time>
      </trkpt>
      <trkpt lat="47.10743" lon="5.56188">
        <ele>210</ele>
        <time>2019-03-06T09:41:29Z</time>
      </trkpt>
      <trkpt lat="47.10752" lon="5.56182">
        <ele>210</ele>
        <time>2019-03-06T09:41:37Z</time>
      </trkpt>
      <trkpt lat="47.10757" lon="5.56178">
        <ele>210</ele>
        <time>2019-03-06T09:41:41Z</time>
      </trkpt>
      <trkpt lat="47.10769" lon="5.56167">
        <ele>210</ele>
        <time>2019-03-06T09:41:54Z</time>
      </trkpt>
      <trkpt lat="47.10779" lon="5.5616">
        <ele>211</ele>
        <time>2019-03-06T09:42:02Z</time>
      </trkpt>
      <trkpt lat="47.10784" lon="5.56157">
        <ele>210</ele>
        <time>2019-03-06T09:42:06Z</time>
      </trkpt>
      <trkpt lat="47.10788" lon="5.56154">
        <ele>210</ele>
        <time>2019-03-06T09:42:10Z</time>
      </trkpt>
      <trkpt lat="47.10798" lon="5.56149">
        <ele>209</ele>
        <time>2019-03-06T09:42:18Z</time>
      </trkpt>
      <trkpt lat="47.10802" lon="5.56146">
        <ele>210</ele>
        <time>2019-03-06T09:42:22Z</time>
      </trkpt>
      <trkpt lat="47.10812" lon="5.5614">
        <ele>209</ele>
        <time>2019-03-06T09:42:30Z</time>
      </trkpt>
      <trkpt lat="47.10817" lon="5.56137">
        <ele>210</ele>
        <time>2019-03-06T09:42:34Z</time>
      </trkpt>
      <trkpt lat="47.10831" lon="5.56126">
        <ele>210</ele>
        <time>2019-03-06T09:42:46Z</time>
      </trkpt>
      <trkpt lat="47.10853" lon="5.56108">
        <ele>207</ele>
        <time>2019-03-06T09:43:09Z</time>
      </trkpt>
      <trkpt lat="47.10858" lon="5.56105">
        <ele>206</ele>
        <time>2019-03-06T09:43:13Z</time>
      </trkpt>
      <trkpt lat="47.10863" lon="5.56102">
        <ele>206</ele>
        <time>2019-03-06T09:43:17Z</time>
      </trkpt>
      <trkpt lat="47.10867" lon="5.56099">
        <ele>206</ele>
        <time>2019-03-06T09:43:20Z</time>
      </trkpt>
      <trkpt lat="47.10873" lon="5.56097">
        <ele>207</ele>
        <time>2019-03-06T09:43:24Z</time>
      </trkpt>
      <trkpt lat="47.10878" lon="5.56093">
        <ele>207</ele>
        <time>2019-03-06T09:43:28Z</time>
      </trkpt>
      <trkpt lat="47.10884" lon="5.5609">
        <ele>207</ele>
        <time>2019-03-06T09:43:32Z</time>
      </trkpt>
      <trkpt lat="47.109" lon="5.56086">
        <ele>206</ele>
        <time>2019-03-06T09:43:44Z</time>
      </trkpt>
      <trkpt lat="47.10906" lon="5.56084">
        <ele>206</ele>
        <time>2019-03-06T09:43:48Z</time>
      </trkpt>
      <trkpt lat="47.10911" lon="5.56084">
        <ele>205</ele>
        <time>2019-03-06T09:43:53Z</time>
      </trkpt>
      <trkpt lat="47.10917" lon="5.56084">
        <ele>205</ele>
        <time>2019-03-06T09:43:57Z</time>
      </trkpt>
      <trkpt lat="47.10929" lon="5.56081">
        <ele>205</ele>
        <time>2019-03-06T09:44:07Z</time>
      </trkpt>
      <trkpt lat="47.10961" lon="5.56081">
        <ele>205</ele>
        <time>2019-03-06T09:44:32Z</time>
      </trkpt>
      <trkpt lat="47.10967" lon="5.56081">
        <ele>206</ele>
        <time>2019-03-06T09:44:36Z</time>
      </trkpt>
      <trkpt lat="47.10993" lon="5.56087">
        <ele>206</ele>
        <time>2019-03-06T09:44:56Z</time>
      </trkpt>
      <trkpt lat="47.11002" lon="5.56094">
        <ele>206</ele>
        <time>2019-03-06T09:45:03Z</time>
      </trkpt>
      <trkpt lat="47.11005" lon="5.56099">
        <ele>207</ele>
        <time>2019-03-06T09:45:07Z</time>
      </trkpt>
      <trkpt lat="47.11009" lon="5.56103">
        <ele>207</ele>
        <time>2019-03-06T09:45:11Z</time>
      </trkpt>
      <trkpt lat="47.11014" lon="5.56107">
        <ele>207</ele>
        <time>2019-03-06T09:45:15Z</time>
      </trkpt>
      <trkpt lat="47.11018" lon="5.56111">
        <ele>207</ele>
        <time>2019-03-06T09:45:19Z</time>
      </trkpt>
      <trkpt lat="47.11023" lon="5.56114">
        <ele>207</ele>
        <time>2019-03-06T09:45:23Z</time>
      </trkpt>
      <trkpt lat="47.11028" lon="5.56115">
        <ele>207</ele>
        <time>2019-03-06T09:45:28Z</time>
      </trkpt>
      <trkpt lat="47.11032" lon="5.56111">
        <ele>207</ele>
        <time>2019-03-06T09:45:32Z</time>
      </trkpt>
      <trkpt lat="47.11038" lon="5.56099">
        <ele>207</ele>
        <time>2019-03-06T09:45:41Z</time>
      </trkpt>
      <trkpt lat="47.11039" lon="5.56092">
        <ele>206</ele>
        <time>2019-03-06T09:45:46Z</time>
      </trkpt>
      <trkpt lat="47.1104" lon="5.56085">
        <ele>206</ele>
        <time>2019-03-06T09:45:51Z</time>
      </trkpt>
      <trkpt lat="47.11045" lon="5.56072">
        <ele>206</ele>
        <time>2019-03-06T09:46:00Z</time>
      </trkpt>
      <trkpt lat="47.11047" lon="5.56065">
        <ele>206</ele>
        <time>2019-03-06T09:46:04Z</time>
      </trkpt>
      <trkpt lat="47.1105" lon="5.56059">
        <ele>206</ele>
        <time>2019-03-06T09:46:08Z</time>
      </trkpt>
      <trkpt lat="47.11054" lon="5.56054">
        <ele>206</ele>
        <time>2019-03-06T09:46:11Z</time>
      </trkpt>
      <trkpt lat="47.11062" lon="5.56026">
        <ele>206</ele>
        <time>2019-03-06T09:46:28Z</time>
      </trkpt>
      <trkpt lat="47.11063" lon="5.56019">
        <ele>206</ele>
        <time>2019-03-06T09:46:33Z</time>
      </trkpt>
      <trkpt lat="47.1107" lon="5.56007">
        <ele>206</ele>
        <time>2019-03-06T09:46:40Z</time>
      </trkpt>
      <trkpt lat="47.11088" lon="5.55956">
        <ele>205</ele>
        <time>2019-03-06T09:47:12Z</time>
      </trkpt>
      <trkpt lat="47.11091" lon="5.55949">
        <ele>205</ele>
        <time>2019-03-06T09:47:16Z</time>
      </trkpt>
      <trkpt lat="47.11101" lon="5.55923">
        <ele>202</ele>
        <time>2019-03-06T09:47:33Z</time>
      </trkpt>
      <trkpt lat="47.11111" lon="5.55905">
        <ele>203</ele>
        <time>2019-03-06T09:47:44Z</time>
      </trkpt>
      <trkpt lat="47.1111" lon="5.55898">
        <ele>203</ele>
        <time>2019-03-06T09:47:48Z</time>
      </trkpt>
      <trkpt lat="47.11114" lon="5.55891">
        <ele>203</ele>
        <time>2019-03-06T09:47:52Z</time>
      </trkpt>
      <trkpt lat="47.11121" lon="5.55879">
        <ele>202</ele>
        <time>2019-03-06T09:48:00Z</time>
      </trkpt>
      <trkpt lat="47.11123" lon="5.55872">
        <ele>202</ele>
        <time>2019-03-06T09:48:05Z</time>
      </trkpt>
      <trkpt lat="47.11128" lon="5.55858">
        <ele>203</ele>
        <time>2019-03-06T09:48:14Z</time>
      </trkpt>
      <trkpt lat="47.1113" lon="5.55852">
        <ele>203</ele>
        <time>2019-03-06T09:48:18Z</time>
      </trkpt>
      <trkpt lat="47.11138" lon="5.55839">
        <ele>203</ele>
        <time>2019-03-06T09:48:26Z</time>
      </trkpt>
      <trkpt lat="47.11144" lon="5.55826">
        <ele>203</ele>
        <time>2019-03-06T09:48:34Z</time>
      </trkpt>
      <trkpt lat="47.11148" lon="5.55812">
        <ele>203</ele>
        <time>2019-03-06T09:48:42Z</time>
      </trkpt>
      <trkpt lat="47.11149" lon="5.55804">
        <ele>202</ele>
        <time>2019-03-06T09:48:47Z</time>
      </trkpt>
      <trkpt lat="47.1115" lon="5.55797">
        <ele>201</ele>
        <time>2019-03-06T09:48:51Z</time>
      </trkpt>
      <trkpt lat="47.11154" lon="5.55784">
        <ele>202</ele>
        <time>2019-03-06T09:48:59Z</time>
      </trkpt>
      <trkpt lat="47.11162" lon="5.55766">
        <ele>201</ele>
        <time>2019-03-06T09:49:11Z</time>
      </trkpt>
      <trkpt lat="47.11169" lon="5.55754">
        <ele>203</ele>
        <time>2019-03-06T09:49:19Z</time>
      </trkpt>
      <trkpt lat="47.11172" lon="5.55748">
        <ele>203</ele>
        <time>2019-03-06T09:49:23Z</time>
      </trkpt>
      <trkpt lat="47.11175" lon="5.55734">
        <ele>202</ele>
        <time>2019-03-06T09:49:31Z</time>
      </trkpt>
      <trkpt lat="47.1118" lon="5.55722">
        <ele>202</ele>
        <time>2019-03-06T09:49:38Z</time>
      </trkpt>
      <trkpt lat="47.11182" lon="5.55715">
        <ele>202</ele>
        <time>2019-03-06T09:49:42Z</time>
      </trkpt>
      <trkpt lat="47.11185" lon="5.55708">
        <ele>202</ele>
        <time>2019-03-06T09:49:46Z</time>
      </trkpt>
      <trkpt lat="47.11189" lon="5.55702">
        <ele>202</ele>
        <time>2019-03-06T09:49:50Z</time>
      </trkpt>
      <trkpt lat="47.11192" lon="5.55695">
        <ele>203</ele>
        <time>2019-03-06T09:49:54Z</time>
      </trkpt>
      <trkpt lat="47.11195" lon="5.55689">
        <ele>202</ele>
        <time>2019-03-06T09:49:58Z</time>
      </trkpt>
      <trkpt lat="47.11198" lon="5.55684">
        <ele>202</ele>
        <time>2019-03-06T09:50:02Z</time>
      </trkpt>
      <trkpt lat="47.11208" lon="5.55658">
        <ele>203</ele>
        <time>2019-03-06T09:50:20Z</time>
      </trkpt>
      <trkpt lat="47.11212" lon="5.55652">
        <ele>203</ele>
        <time>2019-03-06T09:50:24Z</time>
      </trkpt>
      <trkpt lat="47.11215" lon="5.55646">
        <ele>203</ele>
        <time>2019-03-06T09:50:28Z</time>
      </trkpt>
      <trkpt lat="47.11217" lon="5.5564">
        <ele>203</ele>
        <time>2019-03-06T09:50:32Z</time>
      </trkpt>
      <trkpt lat="47.11221" lon="5.55634">
        <ele>204</ele>
        <time>2019-03-06T09:50:36Z</time>
      </trkpt>
      <trkpt lat="47.11225" lon="5.55621">
        <ele>203</ele>
        <time>2019-03-06T09:50:45Z</time>
      </trkpt>
      <trkpt lat="47.11228" lon="5.55613">
        <ele>204</ele>
        <time>2019-03-06T09:50:49Z</time>
      </trkpt>
      <trkpt lat="47.11231" lon="5.55599">
        <ele>204</ele>
        <time>2019-03-06T09:50:57Z</time>
      </trkpt>
      <trkpt lat="47.11234" lon="5.55593">
        <ele>205</ele>
        <time>2019-03-06T09:51:01Z</time>
      </trkpt>
      <trkpt lat="47.11239" lon="5.55593">
        <ele>205</ele>
        <time>2019-03-06T09:51:05Z</time>
      </trkpt>
      <trkpt lat="47.11244" lon="5.55595">
        <ele>206</ele>
        <time>2019-03-06T09:51:08Z</time>
      </trkpt>
      <trkpt lat="47.11253" lon="5.55601">
        <ele>206</ele>
        <time>2019-03-06T09:51:15Z</time>
      </trkpt>
      <trkpt lat="47.11258" lon="5.55603">
        <ele>206</ele>
        <time>2019-03-06T09:51:18Z</time>
      </trkpt>
      <trkpt lat="47.11262" lon="5.55607">
        <ele>206</ele>
        <time>2019-03-06T09:51:22Z</time>
      </trkpt>
      <trkpt lat="47.11267" lon="5.55611">
        <ele>206</ele>
        <time>2019-03-06T09:51:26Z</time>
      </trkpt>
      <trkpt lat="47.11272" lon="5.55613">
        <ele>206</ele>
        <time>2019-03-06T09:51:30Z</time>
      </trkpt>
      <trkpt lat="47.11278" lon="5.55615">
        <ele>205</ele>
        <time>2019-03-06T09:51:34Z</time>
      </trkpt>
      <trkpt lat="47.11281" lon="5.55619">
        <ele>205</ele>
        <time>2019-03-06T09:51:38Z</time>
      </trkpt>
      <trkpt lat="47.11286" lon="5.55623">
        <ele>205</ele>
        <time>2019-03-06T09:51:42Z</time>
      </trkpt>
      <trkpt lat="47.1129" lon="5.55627">
        <ele>205</ele>
        <time>2019-03-06T09:51:46Z</time>
      </trkpt>
      <trkpt lat="47.11294" lon="5.55632">
        <ele>206</ele>
        <time>2019-03-06T09:51:50Z</time>
      </trkpt>
      <trkpt lat="47.11315" lon="5.55643">
        <ele>206</ele>
        <time>2019-03-06T09:52:06Z</time>
      </trkpt>
      <trkpt lat="47.11319" lon="5.55647">
        <ele>206</ele>
        <time>2019-03-06T09:52:10Z</time>
      </trkpt>
      <trkpt lat="47.11336" lon="5.55663">
        <ele>206</ele>
        <time>2019-03-06T09:52:25Z</time>
      </trkpt>
      <trkpt lat="47.11344" lon="5.55675">
        <ele>206</ele>
        <time>2019-03-06T09:52:33Z</time>
      </trkpt>
      <trkpt lat="47.11349" lon="5.55678">
        <ele>206</ele>
        <time>2019-03-06T09:52:37Z</time>
      </trkpt>
      <trkpt lat="47.11354" lon="5.5568">
        <ele>207</ele>
        <time>2019-03-06T09:52:41Z</time>
      </trkpt>
      <trkpt lat="47.11394" lon="5.55695">
        <ele>207</ele>
        <time>2019-03-06T09:53:13Z</time>
      </trkpt>
      <trkpt lat="47.11399" lon="5.55697">
        <ele>207</ele>
        <time>2019-03-06T09:53:17Z</time>
      </trkpt>
      <trkpt lat="47.11408" lon="5.55704">
        <ele>208</ele>
        <time>2019-03-06T09:53:25Z</time>
      </trkpt>
      <trkpt lat="47.11449" lon="5.55717">
        <ele>207</ele>
        <time>2019-03-06T09:53:57Z</time>
      </trkpt>
      <trkpt lat="47.11454" lon="5.55719">
        <ele>207</ele>
        <time>2019-03-06T09:54:01Z</time>
      </trkpt>
      <trkpt lat="47.1147" lon="5.55725">
        <ele>208</ele>
        <time>2019-03-06T09:54:13Z</time>
      </trkpt>
      <trkpt lat="47.11508" lon="5.55739">
        <ele>207</ele>
        <time>2019-03-06T09:54:45Z</time>
      </trkpt>
      <trkpt lat="47.1154" lon="5.5576">
        <ele>208</ele>
        <time>2019-03-06T09:55:12Z</time>
      </trkpt>
      <trkpt lat="47.11544" lon="5.55764">
        <ele>208</ele>
        <time>2019-03-06T09:55:16Z</time>
      </trkpt>
      <trkpt lat="47.11548" lon="5.55768">
        <ele>208</ele>
        <time>2019-03-06T09:55:20Z</time>
      </trkpt>
      <trkpt lat="47.11559" lon="5.55774">
        <ele>208</ele>
        <time>2019-03-06T09:55:28Z</time>
      </trkpt>
      <trkpt lat="47.11565" lon="5.55775">
        <ele>208</ele>
        <time>2019-03-06T09:55:32Z</time>
      </trkpt>
      <trkpt lat="47.11575" lon="5.55779">
        <ele>208</ele>
        <time>2019-03-06T09:55:40Z</time>
      </trkpt>
      <trkpt lat="47.1158" lon="5.55783">
        <ele>208</ele>
        <time>2019-03-06T09:55:44Z</time>
      </trkpt>
      <trkpt lat="47.11588" lon="5.55789">
        <ele>208</ele>
        <time>2019-03-06T09:55:52Z</time>
      </trkpt>
      <trkpt lat="47.11603" lon="5.55795">
        <ele>208</ele>
        <time>2019-03-06T09:56:04Z</time>
      </trkpt>
      <trkpt lat="47.11608" lon="5.55798">
        <ele>208</ele>
        <time>2019-03-06T09:56:08Z</time>
      </trkpt>
      <trkpt lat="47.11612" lon="5.558">
        <ele>208</ele>
        <time>2019-03-06T09:56:12Z</time>
      </trkpt>
      <trkpt lat="47.11617" lon="5.55804">
        <ele>208</ele>
        <time>2019-03-06T09:56:16Z</time>
      </trkpt>
      <trkpt lat="47.11621" lon="5.55807">
        <ele>208</ele>
        <time>2019-03-06T09:56:20Z</time>
      </trkpt>
      <trkpt lat="47.11625" lon="5.5581">
        <ele>208</ele>
        <time>2019-03-06T09:56:24Z</time>
      </trkpt>
      <trkpt lat="47.1163" lon="5.55813">
        <ele>208</ele>
        <time>2019-03-06T09:56:28Z</time>
      </trkpt>
      <trkpt lat="47.11638" lon="5.5582">
        <ele>208</ele>
        <time>2019-03-06T09:56:36Z</time>
      </trkpt>
      <trkpt lat="47.11643" lon="5.55823">
        <ele>208</ele>
        <time>2019-03-06T09:56:40Z</time>
      </trkpt>
      <trkpt lat="47.11649" lon="5.55825">
        <ele>208</ele>
        <time>2019-03-06T09:56:44Z</time>
      </trkpt>
      <trkpt lat="47.11654" lon="5.55827">
        <ele>208</ele>
        <time>2019-03-06T09:56:48Z</time>
      </trkpt>
      <trkpt lat="47.11658" lon="5.55829">
        <ele>209</ele>
        <time>2019-03-06T09:56:52Z</time>
      </trkpt>
      <trkpt lat="47.11663" lon="5.55833">
        <ele>208</ele>
        <time>2019-03-06T09:56:56Z</time>
      </trkpt>
      <trkpt lat="47.11672" lon="5.55838">
        <ele>208</ele>
        <time>2019-03-06T09:57:04Z</time>
      </trkpt>
      <trkpt lat="47.11678" lon="5.55838">
        <ele>208</ele>
        <time>2019-03-06T09:57:08Z</time>
      </trkpt>
      <trkpt lat="47.11683" lon="5.55841">
        <ele>207</ele>
        <time>2019-03-06T09:57:12Z</time>
      </trkpt>
      <trkpt lat="47.11698" lon="5.55847">
        <ele>208</ele>
        <time>2019-03-06T09:57:24Z</time>
      </trkpt>
      <trkpt lat="47.11711" lon="5.55857">
        <ele>208</ele>
        <time>2019-03-06T09:57:36Z</time>
      </trkpt>
      <trkpt lat="47.11724" lon="5.5587">
        <ele>208</ele>
        <time>2019-03-06T09:57:49Z</time>
      </trkpt>
      <trkpt lat="47.11729" lon="5.55873">
        <ele>208</ele>
        <time>2019-03-06T09:57:53Z</time>
      </trkpt>
      <trkpt lat="47.11738" lon="5.55876">
        <ele>208</ele>
        <time>2019-03-06T09:58:00Z</time>
      </trkpt>
      <trkpt lat="47.11743" lon="5.55876">
        <ele>208</ele>
        <time>2019-03-06T09:58:03Z</time>
      </trkpt>
      <trkpt lat="47.11752" lon="5.55883">
        <ele>208</ele>
        <time>2019-03-06T09:58:12Z</time>
      </trkpt>
      <trkpt lat="47.11774" lon="5.5589">
        <ele>209</ele>
        <time>2019-03-06T09:58:28Z</time>
      </trkpt>
      <trkpt lat="47.1178" lon="5.55891">
        <ele>209</ele>
        <time>2019-03-06T09:58:32Z</time>
      </trkpt>
      <trkpt lat="47.11785" lon="5.55895">
        <ele>209</ele>
        <time>2019-03-06T09:58:36Z</time>
      </trkpt>
      <trkpt lat="47.11788" lon="5.559">
        <ele>209</ele>
        <time>2019-03-06T09:58:40Z</time>
      </trkpt>
      <trkpt lat="47.11791" lon="5.55906">
        <ele>209</ele>
        <time>2019-03-06T09:58:44Z</time>
      </trkpt>
      <trkpt lat="47.11794" lon="5.55913">
        <ele>210</ele>
        <time>2019-03-06T09:58:48Z</time>
      </trkpt>
      <trkpt lat="47.11809" lon="5.55933">
        <ele>210</ele>
        <time>2019-03-06T09:59:04Z</time>
      </trkpt>
      <trkpt lat="47.11818" lon="5.55941">
        <ele>210</ele>
        <time>2019-03-06T09:59:12Z</time>
      </trkpt>
      <trkpt lat="47.11823" lon="5.55942">
        <ele>210</ele>
        <time>2019-03-06T09:59:16Z</time>
      </trkpt>
      <trkpt lat="47.11827" lon="5.55945">
        <ele>209</ele>
        <time>2019-03-06T09:59:20Z</time>
      </trkpt>
      <trkpt lat="47.1183" lon="5.5595">
        <ele>210</ele>
        <time>2019-03-06T09:59:24Z</time>
      </trkpt>
      <trkpt lat="47.11833" lon="5.55957">
        <ele>209</ele>
        <time>2019-03-06T09:59:28Z</time>
      </trkpt>
      <trkpt lat="47.11838" lon="5.55961">
        <ele>210</ele>
        <time>2019-03-06T09:59:32Z</time>
      </trkpt>
      <trkpt lat="47.11848" lon="5.55977">
        <ele>210</ele>
        <time>2019-03-06T09:59:44Z</time>
      </trkpt>
      <trkpt lat="47.11852" lon="5.55984">
        <ele>209</ele>
        <time>2019-03-06T09:59:47Z</time>
      </trkpt>
      <trkpt lat="47.11855" lon="5.55989">
        <ele>209</ele>
        <time>2019-03-06T09:59:51Z</time>
      </trkpt>
      <trkpt lat="47.1186" lon="5.5599">
        <ele>209</ele>
        <time>2019-03-06T09:59:54Z</time>
      </trkpt>
      <trkpt lat="47.11863" lon="5.55995">
        <ele>209</ele>
        <time>2019-03-06T09:59:58Z</time>
      </trkpt>
      <trkpt lat="47.11867" lon="5.56001">
        <ele>209</ele>
        <time>2019-03-06T10:00:02Z</time>
      </trkpt>
      <trkpt lat="47.1187" lon="5.56007">
        <ele>209</ele>
        <time>2019-03-06T10:00:06Z</time>
      </trkpt>
      <trkpt lat="47.11871" lon="5.56014">
        <ele>210</ele>
        <time>2019-03-06T10:00:09Z</time>
      </trkpt>
      <trkpt lat="47.11874" lon="5.56021">
        <ele>209</ele>
        <time>2019-03-06T10:00:13Z</time>
      </trkpt>
      <trkpt lat="47.11877" lon="5.56026">
        <ele>209</ele>
        <time>2019-03-06T10:00:17Z</time>
      </trkpt>
      <trkpt lat="47.11883" lon="5.56027">
        <ele>209</ele>
        <time>2019-03-06T10:00:21Z</time>
      </trkpt>
      <trkpt lat="47.11886" lon="5.56032">
        <ele>209</ele>
        <time>2019-03-06T10:00:25Z</time>
      </trkpt>
      <trkpt lat="47.1189" lon="5.56037">
        <ele>209</ele>
        <time>2019-03-06T10:00:29Z</time>
      </trkpt>
      <trkpt lat="47.11896" lon="5.56039">
        <ele>209</ele>
        <time>2019-03-06T10:00:33Z</time>
      </trkpt>
      <trkpt lat="47.11899" lon="5.56047">
        <ele>210</ele>
        <time>2019-03-06T10:00:38Z</time>
      </trkpt>
      <trkpt lat="47.11902" lon="5.56053">
        <ele>210</ele>
        <time>2019-03-06T10:00:42Z</time>
      </trkpt>
      <trkpt lat="47.11904" lon="5.56061">
        <ele>211</ele>
        <time>2019-03-06T10:00:45Z</time>
      </trkpt>
      <trkpt lat="47.11906" lon="5.56069">
        <ele>211</ele>
        <time>2019-03-06T10:00:49Z</time>
      </trkpt>
      <trkpt lat="47.11908" lon="5.56075">
        <ele>210</ele>
        <time>2019-03-06T10:00:52Z</time>
      </trkpt>
      <trkpt lat="47.11908" lon="5.56083">
        <ele>210</ele>
        <time>2019-03-06T10:00:55Z</time>
      </trkpt>
      <trkpt lat="47.1191" lon="5.56089">
        <ele>210</ele>
        <time>2019-03-06T10:00:58Z</time>
      </trkpt>
      <trkpt lat="47.11915" lon="5.56101">
        <ele>210</ele>
        <time>2019-03-06T10:01:06Z</time>
      </trkpt>
      <trkpt lat="47.11917" lon="5.56108">
        <ele>210</ele>
        <time>2019-03-06T10:01:10Z</time>
      </trkpt>
      <trkpt lat="47.1192" lon="5.56112">
        <ele>210</ele>
        <time>2019-03-06T10:01:14Z</time>
      </trkpt>
      <trkpt lat="47.11921" lon="5.56119">
        <ele>210</ele>
        <time>2019-03-06T10:01:18Z</time>
      </trkpt>
      <trkpt lat="47.11922" lon="5.56127">
        <ele>210</ele>
        <time>2019-03-06T10:01:22Z</time>
      </trkpt>
      <trkpt lat="47.11923" lon="5.56135">
        <ele>210</ele>
        <time>2019-03-06T10:01:27Z</time>
      </trkpt>
      <trkpt lat="47.11925" lon="5.56165">
        <ele>210</ele>
        <time>2019-03-06T10:01:43Z</time>
      </trkpt>
      <trkpt lat="47.11926" lon="5.56172">
        <ele>211</ele>
        <time>2019-03-06T10:01:47Z</time>
      </trkpt>
      <trkpt lat="47.11927" lon="5.5618">
        <ele>211</ele>
        <time>2019-03-06T10:01:52Z</time>
      </trkpt>
      <trkpt lat="47.11927" lon="5.56187">
        <ele>211</ele>
        <time>2019-03-06T10:01:55Z</time>
      </trkpt>
      <trkpt lat="47.1193" lon="5.56201">
        <ele>210</ele>
        <time>2019-03-06T10:02:04Z</time>
      </trkpt>
      <trkpt lat="47.11929" lon="5.56209">
        <ele>209</ele>
        <time>2019-03-06T10:02:08Z</time>
      </trkpt>
      <trkpt lat="47.1193" lon="5.56223">
        <ele>210</ele>
        <time>2019-03-06T10:02:14Z</time>
      </trkpt>
      <trkpt lat="47.11934" lon="5.56237">
        <ele>210</ele>
        <time>2019-03-06T10:02:21Z</time>
      </trkpt>
      <trkpt lat="47.11936" lon="5.56244">
        <ele>209</ele>
        <time>2019-03-06T10:02:25Z</time>
      </trkpt>
      <trkpt lat="47.1194" lon="5.56259">
        <ele>209</ele>
        <time>2019-03-06T10:02:33Z</time>
      </trkpt>
      <trkpt lat="47.11948" lon="5.56279">
        <ele>209</ele>
        <time>2019-03-06T10:02:45Z</time>
      </trkpt>
      <trkpt lat="47.11952" lon="5.56285">
        <ele>209</ele>
        <time>2019-03-06T10:02:49Z</time>
      </trkpt>
      <trkpt lat="47.11955" lon="5.56291">
        <ele>210</ele>
        <time>2019-03-06T10:02:53Z</time>
      </trkpt>
      <trkpt lat="47.11964" lon="5.563">
        <ele>210</ele>
        <time>2019-03-06T10:03:01Z</time>
      </trkpt>
      <trkpt lat="47.11967" lon="5.56307">
        <ele>210</ele>
        <time>2019-03-06T10:03:05Z</time>
      </trkpt>
      <trkpt lat="47.1197" lon="5.56314">
        <ele>210</ele>
        <time>2019-03-06T10:03:09Z</time>
      </trkpt>
      <trkpt lat="47.11974" lon="5.56322">
        <ele>210</ele>
        <time>2019-03-06T10:03:13Z</time>
      </trkpt>
      <trkpt lat="47.11977" lon="5.56328">
        <ele>210</ele>
        <time>2019-03-06T10:03:17Z</time>
      </trkpt>
      <trkpt lat="47.11984" lon="5.56339">
        <ele>209</ele>
        <time>2019-03-06T10:03:25Z</time>
      </trkpt>
      <trkpt lat="47.11992" lon="5.56349">
        <ele>209</ele>
        <time>2019-03-06T10:03:33Z</time>
      </trkpt>
      <trkpt lat="47.12" lon="5.56359">
        <ele>208</ele>
        <time>2019-03-06T10:03:41Z</time>
      </trkpt>
      <trkpt lat="47.12006" lon="5.56372">
        <ele>208</ele>
        <time>2019-03-06T10:03:49Z</time>
      </trkpt>
      <trkpt lat="47.12014" lon="5.56382">
        <ele>208</ele>
        <time>2019-03-06T10:03:57Z</time>
      </trkpt>
      <trkpt lat="47.12021" lon="5.56393">
        <ele>206</ele>
        <time>2019-03-06T10:04:05Z</time>
      </trkpt>
      <trkpt lat="47.12024" lon="5.56399">
        <ele>206</ele>
        <time>2019-03-06T10:04:09Z</time>
      </trkpt>
      <trkpt lat="47.1203" lon="5.56413">
        <ele>207</ele>
        <time>2019-03-06T10:04:17Z</time>
      </trkpt>
      <trkpt lat="47.12037" lon="5.56424">
        <ele>206</ele>
        <time>2019-03-06T10:04:25Z</time>
      </trkpt>
      <trkpt lat="47.12041" lon="5.5643">
        <ele>205</ele>
        <time>2019-03-06T10:04:30Z</time>
      </trkpt>
      <trkpt lat="47.12044" lon="5.56435">
        <ele>205</ele>
        <time>2019-03-06T10:04:34Z</time>
      </trkpt>
      <trkpt lat="47.12047" lon="5.56443">
        <ele>205</ele>
        <time>2019-03-06T10:04:38Z</time>
      </trkpt>
      <trkpt lat="47.12052" lon="5.56457">
        <ele>206</ele>
        <time>2019-03-06T10:04:46Z</time>
      </trkpt>
      <trkpt lat="47.12056" lon="5.56462">
        <ele>206</ele>
        <time>2019-03-06T10:04:50Z</time>
      </trkpt>
      <trkpt lat="47.12067" lon="5.56487">
        <ele>206</ele>
        <time>2019-03-06T10:05:06Z</time>
      </trkpt>
      <trkpt lat="47.12075" lon="5.56516">
        <ele>205</ele>
        <time>2019-03-06T10:05:25Z</time>
      </trkpt>
      <trkpt lat="47.12076" lon="5.56524">
        <ele>205</ele>
        <time>2019-03-06T10:05:29Z</time>
      </trkpt>
      <trkpt lat="47.12078" lon="5.5657">
        <ele>206</ele>
        <time>2019-03-06T10:05:50Z</time>
      </trkpt>
      <trkpt lat="47.12079" lon="5.56578">
        <ele>206</ele>
        <time>2019-03-06T10:05:54Z</time>
      </trkpt>
      <trkpt lat="47.12078" lon="5.56585">
        <ele>206</ele>
        <time>2019-03-06T10:05:57Z</time>
      </trkpt>
      <trkpt lat="47.12079" lon="5.56598">
        <ele>206</ele>
        <time>2019-03-06T10:06:06Z</time>
      </trkpt>
      <trkpt lat="47.12079" lon="5.56606">
        <ele>206</ele>
        <time>2019-03-06T10:06:10Z</time>
      </trkpt>
      <trkpt lat="47.12084" lon="5.56618">
        <ele>206</ele>
        <time>2019-03-06T10:06:20Z</time>
      </trkpt>
      <trkpt lat="47.12084" lon="5.56626">
        <ele>206</ele>
        <time>2019-03-06T10:06:25Z</time>
      </trkpt>
      <trkpt lat="47.12081" lon="5.56633">
        <ele>204</ele>
        <time>2019-03-06T10:06:30Z</time>
      </trkpt>
      <trkpt lat="47.12079" lon="5.56635">
        <ele>203</ele>
        <time>2019-03-06T10:07:49Z</time>
      </trkpt>
      <trkpt lat="47.12082" lon="5.56639">
        <ele>203</ele>
        <time>2019-03-06T10:07:52Z</time>
      </trkpt>
      <trkpt lat="47.12087" lon="5.56642">
        <ele>203</ele>
        <time>2019-03-06T10:07:57Z</time>
      </trkpt>
      <trkpt lat="47.12096" lon="5.56646">
        <ele>201</ele>
        <time>2019-03-06T10:08:05Z</time>
      </trkpt>
      <trkpt lat="47.12099" lon="5.56651">
        <ele>201</ele>
        <time>2019-03-06T10:08:09Z</time>
      </trkpt>
      <trkpt lat="47.12103" lon="5.56655">
        <ele>202</ele>
        <time>2019-03-06T10:08:13Z</time>
      </trkpt>
      <trkpt lat="47.12108" lon="5.56659">
        <ele>201</ele>
        <time>2019-03-06T10:08:17Z</time>
      </trkpt>
      <trkpt lat="47.1211" lon="5.56666">
        <ele>202</ele>
        <time>2019-03-06T10:08:21Z</time>
      </trkpt>
      <trkpt lat="47.12112" lon="5.56673">
        <ele>203</ele>
        <time>2019-03-06T10:08:25Z</time>
      </trkpt>
      <trkpt lat="47.12116" lon="5.56678">
        <ele>204</ele>
        <time>2019-03-06T10:08:29Z</time>
      </trkpt>
      <trkpt lat="47.1212" lon="5.56683">
        <ele>203</ele>
        <time>2019-03-06T10:08:33Z</time>
      </trkpt>
      <trkpt lat="47.12125" lon="5.56697">
        <ele>204</ele>
        <time>2019-03-06T10:08:41Z</time>
      </trkpt>
      <trkpt lat="47.12129" lon="5.56711">
        <ele>204</ele>
        <time>2019-03-06T10:08:48Z</time>
      </trkpt>
      <trkpt lat="47.12137" lon="5.56731">
        <ele>205</ele>
        <time>2019-03-06T10:09:00Z</time>
      </trkpt>
      <trkpt lat="47.12143" lon="5.56744">
        <ele>204</ele>
        <time>2019-03-06T10:09:08Z</time>
      </trkpt>
      <trkpt lat="47.12147" lon="5.56757">
        <ele>204</ele>
        <time>2019-03-06T10:09:15Z</time>
      </trkpt>
      <trkpt lat="47.1215" lon="5.56764">
        <ele>204</ele>
        <time>2019-03-06T10:09:19Z</time>
      </trkpt>
      <trkpt lat="47.12157" lon="5.56785">
        <ele>204</ele>
        <time>2019-03-06T10:09:31Z</time>
      </trkpt>
      <trkpt lat="47.12159" lon="5.56792">
        <ele>205</ele>
        <time>2019-03-06T10:09:35Z</time>
      </trkpt>
      <trkpt lat="47.1216" lon="5.56801">
        <ele>205</ele>
        <time>2019-03-06T10:09:38Z</time>
      </trkpt>
      <trkpt lat="47.12166" lon="5.56815">
        <ele>206</ele>
        <time>2019-03-06T10:09:46Z</time>
      </trkpt>
      <trkpt lat="47.12169" lon="5.5682">
        <ele>205</ele>
        <time>2019-03-06T10:09:50Z</time>
      </trkpt>
      <trkpt lat="47.12175" lon="5.56831">
        <ele>205</ele>
        <time>2019-03-06T10:09:58Z</time>
      </trkpt>
      <trkpt lat="47.1218" lon="5.56835">
        <ele>206</ele>
        <time>2019-03-06T10:10:02Z</time>
      </trkpt>
      <trkpt lat="47.12185" lon="5.56839">
        <ele>206</ele>
        <time>2019-03-06T10:10:06Z</time>
      </trkpt>
      <trkpt lat="47.12188" lon="5.56845">
        <ele>206</ele>
        <time>2019-03-06T10:10:10Z</time>
      </trkpt>
      <trkpt lat="47.12214" lon="5.56856">
        <ele>206</ele>
        <time>2019-03-06T10:10:30Z</time>
      </trkpt>
      <trkpt lat="47.12223" lon="5.56861">
        <ele>207</ele>
        <time>2019-03-06T10:10:38Z</time>
      </trkpt>
      <trkpt lat="47.12227" lon="5.56864">
        <ele>207</ele>
        <time>2019-03-06T10:10:42Z</time>
      </trkpt>
      <trkpt lat="47.12232" lon="5.56865">
        <ele>206</ele>
        <time>2019-03-06T10:10:46Z</time>
      </trkpt>
      <trkpt lat="47.12248" lon="5.56871">
        <ele>209</ele>
        <time>2019-03-06T10:10:58Z</time>
      </trkpt>
      <trkpt lat="47.12253" lon="5.56872">
        <ele>209</ele>
        <time>2019-03-06T10:11:02Z</time>
      </trkpt>
      <trkpt lat="47.12258" lon="5.56874">
        <ele>208</ele>
        <time>2019-03-06T10:11:06Z</time>
      </trkpt>
      <trkpt lat="47.12272" lon="5.56883">
        <ele>207</ele>
        <time>2019-03-06T10:11:18Z</time>
      </trkpt>
      <trkpt lat="47.12277" lon="5.56884">
        <ele>207</ele>
        <time>2019-03-06T10:11:22Z</time>
      </trkpt>
      <trkpt lat="47.12282" lon="5.56885">
        <ele>207</ele>
        <time>2019-03-06T10:11:27Z</time>
      </trkpt>
      <trkpt lat="47.12288" lon="5.56886">
        <ele>208</ele>
        <time>2019-03-06T10:11:34Z</time>
      </trkpt>
      <trkpt lat="47.12293" lon="5.56886">
        <ele>207</ele>
        <time>2019-03-06T10:11:39Z</time>
      </trkpt>
      <trkpt lat="47.12297" lon="5.56884">
        <ele>207</ele>
        <time>2019-03-06T10:11:43Z</time>
      </trkpt>
      <trkpt lat="47.12302" lon="5.56882">
        <ele>207</ele>
        <time>2019-03-06T10:11:48Z</time>
      </trkpt>
      <trkpt lat="47.12307" lon="5.5688">
        <ele>207</ele>
        <time>2019-03-06T10:11:52Z</time>
      </trkpt>
      <trkpt lat="47.12312" lon="5.56879">
        <ele>206</ele>
        <time>2019-03-06T10:11:56Z</time>
      </trkpt>
      <trkpt lat="47.12316" lon="5.56877">
        <ele>206</ele>
        <time>2019-03-06T10:12:00Z</time>
      </trkpt>
      <trkpt lat="47.12322" lon="5.56878">
        <ele>206</ele>
        <time>2019-03-06T10:12:04Z</time>
      </trkpt>
      <trkpt lat="47.12326" lon="5.56876">
        <ele>206</ele>
        <time>2019-03-06T10:12:08Z</time>
      </trkpt>
      <trkpt lat="47.12331" lon="5.56874">
        <ele>208</ele>
        <time>2019-03-06T10:12:12Z</time>
      </trkpt>
      <trkpt lat="47.12335" lon="5.56871">
        <ele>207</ele>
        <time>2019-03-06T10:12:17Z</time>
      </trkpt>
      <trkpt lat="47.12342" lon="5.5687">
        <ele>207</ele>
        <time>2019-03-06T10:12:23Z</time>
      </trkpt>
      <trkpt lat="47.12348" lon="5.56867">
        <ele>208</ele>
        <time>2019-03-06T10:12:27Z</time>
      </trkpt>
      <trkpt lat="47.12352" lon="5.56867">
        <ele>207</ele>
        <time>2019-03-06T10:12:30Z</time>
      </trkpt>
      <trkpt lat="47.12373" lon="5.56861">
        <ele>207</ele>
        <time>2019-03-06T10:12:45Z</time>
      </trkpt>
      <trkpt lat="47.12388" lon="5.56851">
        <ele>208</ele>
        <time>2019-03-06T10:13:00Z</time>
      </trkpt>
      <trkpt lat="47.12398" lon="5.56848">
        <ele>207</ele>
        <time>2019-03-06T10:13:07Z</time>
      </trkpt>
      <trkpt lat="47.12417" lon="5.56842">
        <ele>208</ele>
        <time>2019-03-06T10:13:20Z</time>
      </trkpt>
      <trkpt lat="47.12423" lon="5.56839">
        <ele>207</ele>
        <time>2019-03-06T10:13:25Z</time>
      </trkpt>
      <trkpt lat="47.12433" lon="5.56835">
        <ele>206</ele>
        <time>2019-03-06T10:13:33Z</time>
      </trkpt>
      <trkpt lat="47.12454" lon="5.56827">
        <ele>207</ele>
        <time>2019-03-06T10:13:48Z</time>
      </trkpt>
      <trkpt lat="47.12459" lon="5.56827">
        <ele>207</ele>
        <time>2019-03-06T10:13:52Z</time>
      </trkpt>
      <trkpt lat="47.12464" lon="5.56827">
        <ele>207</ele>
        <time>2019-03-06T10:13:56Z</time>
      </trkpt>
      <trkpt lat="47.12469" lon="5.56828">
        <ele>207</ele>
        <time>2019-03-06T10:14:00Z</time>
      </trkpt>
      <trkpt lat="47.1248" lon="5.56831">
        <ele>207</ele>
        <time>2019-03-06T10:14:10Z</time>
      </trkpt>
      <trkpt lat="47.12485" lon="5.56835">
        <ele>208</ele>
        <time>2019-03-06T10:14:14Z</time>
      </trkpt>
      <trkpt lat="47.12494" lon="5.56844">
        <ele>206</ele>
        <time>2019-03-06T10:14:22Z</time>
      </trkpt>
      <trkpt lat="47.12499" lon="5.56848">
        <ele>206</ele>
        <time>2019-03-06T10:14:26Z</time>
      </trkpt>
      <trkpt lat="47.12503" lon="5.56851">
        <ele>206</ele>
        <time>2019-03-06T10:14:29Z</time>
      </trkpt>
      <trkpt lat="47.12507" lon="5.56854">
        <ele>206</ele>
        <time>2019-03-06T10:14:33Z</time>
      </trkpt>
      <trkpt lat="47.12512" lon="5.56856">
        <ele>206</ele>
        <time>2019-03-06T10:14:37Z</time>
      </trkpt>
      <trkpt lat="47.12518" lon="5.56859">
        <ele>205</ele>
        <time>2019-03-06T10:14:41Z</time>
      </trkpt>
      <trkpt lat="47.12522" lon="5.56864">
        <ele>205</ele>
        <time>2019-03-06T10:14:45Z</time>
      </trkpt>
      <trkpt lat="47.12527" lon="5.56867">
        <ele>206</ele>
        <time>2019-03-06T10:14:49Z</time>
      </trkpt>
      <trkpt lat="47.12531" lon="5.5687">
        <ele>206</ele>
        <time>2019-03-06T10:14:53Z</time>
      </trkpt>
      <trkpt lat="47.12535" lon="5.56874">
        <ele>206</ele>
        <time>2019-03-06T10:14:57Z</time>
      </trkpt>
      <trkpt lat="47.1254" lon="5.56878">
        <ele>206</ele>
        <time>2019-03-06T10:15:01Z</time>
      </trkpt>
      <trkpt lat="47.12545" lon="5.56883">
        <ele>205</ele>
        <time>2019-03-06T10:15:05Z</time>
      </trkpt>
      <trkpt lat="47.1255" lon="5.56887">
        <ele>206</ele>
        <time>2019-03-06T10:15:09Z</time>
      </trkpt>
      <trkpt lat="47.12554" lon="5.56891">
        <ele>206</ele>
        <time>2019-03-06T10:15:13Z</time>
      </trkpt>
      <trkpt lat="47.12558" lon="5.56897">
        <ele>206</ele>
        <time>2019-03-06T10:15:17Z</time>
      </trkpt>
      <trkpt lat="47.12566" lon="5.56906">
        <ele>204</ele>
        <time>2019-03-06T10:15:25Z</time>
      </trkpt>
      <trkpt lat="47.12577" lon="5.56923">
        <ele>204</ele>
        <time>2019-03-06T10:15:37Z</time>
      </trkpt>
      <trkpt lat="47.12586" lon="5.56933">
        <ele>202</ele>
        <time>2019-03-06T10:15:45Z</time>
      </trkpt>
      <trkpt lat="47.1259" lon="5.56936">
        <ele>203</ele>
        <time>2019-03-06T10:15:49Z</time>
      </trkpt>
      <trkpt lat="47.12599" lon="5.56944">
        <ele>202</ele>
        <time>2019-03-06T10:15:57Z</time>
      </trkpt>
      <trkpt lat="47.12603" lon="5.56947">
        <ele>202</ele>
        <time>2019-03-06T10:16:01Z</time>
      </trkpt>
      <trkpt lat="47.12607" lon="5.56952">
        <ele>203</ele>
        <time>2019-03-06T10:16:05Z</time>
      </trkpt>
      <trkpt lat="47.12611" lon="5.56955">
        <ele>203</ele>
        <time>2019-03-06T10:16:09Z</time>
      </trkpt>
      <trkpt lat="47.12614" lon="5.5696">
        <ele>203</ele>
        <time>2019-03-06T10:16:13Z</time>
      </trkpt>
      <trkpt lat="47.12623" lon="5.56969">
        <ele>203</ele>
        <time>2019-03-06T10:16:21Z</time>
      </trkpt>
      <trkpt lat="47.12628" lon="5.56973">
        <ele>204</ele>
        <time>2019-03-06T10:16:25Z</time>
      </trkpt>
      <trkpt lat="47.12632" lon="5.56978">
        <ele>204</ele>
        <time>2019-03-06T10:16:29Z</time>
      </trkpt>
      <trkpt lat="47.12634" lon="5.56985">
        <ele>204</ele>
        <time>2019-03-06T10:16:33Z</time>
      </trkpt>
      <trkpt lat="47.12637" lon="5.56992">
        <ele>205</ele>
        <time>2019-03-06T10:16:37Z</time>
      </trkpt>
      <trkpt lat="47.12638" lon="5.56999">
        <ele>205</ele>
        <time>2019-03-06T10:16:41Z</time>
      </trkpt>
      <trkpt lat="47.12637" lon="5.57006">
        <ele>205</ele>
        <time>2019-03-06T10:16:46Z</time>
      </trkpt>
      <trkpt lat="47.12633" lon="5.57013">
        <ele>205</ele>
        <time>2019-03-06T10:16:50Z</time>
      </trkpt>
      <trkpt lat="47.1263" lon="5.57019">
        <ele>205</ele>
        <time>2019-03-06T10:16:54Z</time>
      </trkpt>
      <trkpt lat="47.12628" lon="5.57025">
        <ele>205</ele>
        <time>2019-03-06T10:16:58Z</time>
      </trkpt>
      <trkpt lat="47.12625" lon="5.57032">
        <ele>205</ele>
        <time>2019-03-06T10:17:03Z</time>
      </trkpt>
      <trkpt lat="47.12623" lon="5.5704">
        <ele>204</ele>
        <time>2019-03-06T10:17:08Z</time>
      </trkpt>
      <trkpt lat="47.12622" lon="5.57047">
        <ele>204</ele>
        <time>2019-03-06T10:17:12Z</time>
      </trkpt>
      <trkpt lat="47.12621" lon="5.57054">
        <ele>205</ele>
        <time>2019-03-06T10:17:16Z</time>
      </trkpt>
      <trkpt lat="47.12619" lon="5.57069">
        <ele>205</ele>
        <time>2019-03-06T10:17:24Z</time>
      </trkpt>
      <trkpt lat="47.1262" lon="5.57077">
        <ele>205</ele>
        <time>2019-03-06T10:17:29Z</time>
      </trkpt>
      <trkpt lat="47.12621" lon="5.57084">
        <ele>205</ele>
        <time>2019-03-06T10:17:33Z</time>
      </trkpt>
      <trkpt lat="47.12623" lon="5.5709">
        <ele>205</ele>
        <time>2019-03-06T10:17:37Z</time>
      </trkpt>
      <trkpt lat="47.12624" lon="5.57096">
        <ele>205</ele>
        <time>2019-03-06T10:17:41Z</time>
      </trkpt>
      <trkpt lat="47.12625" lon="5.57112">
        <ele>205</ele>
        <time>2019-03-06T10:17:49Z</time>
      </trkpt>
      <trkpt lat="47.12627" lon="5.57126">
        <ele>206</ele>
        <time>2019-03-06T10:17:57Z</time>
      </trkpt>
      <trkpt lat="47.1263" lon="5.57138">
        <ele>207</ele>
        <time>2019-03-06T10:18:04Z</time>
      </trkpt>
      <trkpt lat="47.12635" lon="5.57154">
        <ele>207</ele>
        <time>2019-03-06T10:18:14Z</time>
      </trkpt>
      <trkpt lat="47.12637" lon="5.57183">
        <ele>207</ele>
        <time>2019-03-06T10:18:28Z</time>
      </trkpt>
      <trkpt lat="47.12652" lon="5.57237">
        <ele>207</ele>
        <time>2019-03-06T10:19:00Z</time>
      </trkpt>
      <trkpt lat="47.12659" lon="5.57269">
        <ele>207</ele>
        <time>2019-03-06T10:19:15Z</time>
      </trkpt>
      <trkpt lat="47.12673" lon="5.57325">
        <ele>203</ele>
        <time>2019-03-06T10:19:48Z</time>
      </trkpt>
      <trkpt lat="47.12674" lon="5.57342">
        <ele>203</ele>
        <time>2019-03-06T10:19:56Z</time>
      </trkpt>
      <trkpt lat="47.12675" lon="5.57358">
        <ele>204</ele>
        <time>2019-03-06T10:20:04Z</time>
      </trkpt>
      <trkpt lat="47.12677" lon="5.57364">
        <ele>203</ele>
        <time>2019-03-06T10:20:07Z</time>
      </trkpt>
      <trkpt lat="47.12678" lon="5.57372">
        <ele>203</ele>
        <time>2019-03-06T10:20:12Z</time>
      </trkpt>
      <trkpt lat="47.12679" lon="5.5738">
        <ele>203</ele>
        <time>2019-03-06T10:20:17Z</time>
      </trkpt>
      <trkpt lat="47.12679" lon="5.57395">
        <ele>202</ele>
        <time>2019-03-06T10:20:24Z</time>
      </trkpt>
      <trkpt lat="47.12678" lon="5.57417">
        <ele>202</ele>
        <time>2019-03-06T10:20:35Z</time>
      </trkpt>
      <trkpt lat="47.12679" lon="5.57444">
        <ele>204</ele>
        <time>2019-03-06T10:20:50Z</time>
      </trkpt>
      <trkpt lat="47.1268" lon="5.57458">
        <ele>203</ele>
        <time>2019-03-06T10:20:57Z</time>
      </trkpt>
      <trkpt lat="47.12673" lon="5.57485">
        <ele>204</ele>
        <time>2019-03-06T10:21:14Z</time>
      </trkpt>
      <trkpt lat="47.12669" lon="5.57498">
        <ele>204</ele>
        <time>2019-03-06T10:21:23Z</time>
      </trkpt>
      <trkpt lat="47.12662" lon="5.57508">
        <ele>204</ele>
        <time>2019-03-06T10:21:30Z</time>
      </trkpt>
      <trkpt lat="47.1265" lon="5.57527">
        <ele>205</ele>
        <time>2019-03-06T10:21:45Z</time>
      </trkpt>
      <trkpt lat="47.12633" lon="5.57541">
        <ele>207</ele>
        <time>2019-03-06T10:22:01Z</time>
      </trkpt>
      <trkpt lat="47.12615" lon="5.57554">
        <ele>208</ele>
        <time>2019-03-06T10:22:17Z</time>
      </trkpt>
      <trkpt lat="47.12607" lon="5.57563">
        <ele>208</ele>
        <time>2019-03-06T10:22:25Z</time>
      </trkpt>
      <trkpt lat="47.12598" lon="5.57567">
        <ele>209</ele>
        <time>2019-03-06T10:22:33Z</time>
      </trkpt>
      <trkpt lat="47.12592" lon="5.57578">
        <ele>209</ele>
        <time>2019-03-06T10:22:41Z</time>
      </trkpt>
      <trkpt lat="47.12588" lon="5.57591">
        <ele>209</ele>
        <time>2019-03-06T10:22:48Z</time>
      </trkpt>
      <trkpt lat="47.12582" lon="5.57602">
        <ele>211</ele>
        <time>2019-03-06T10:22:56Z</time>
      </trkpt>
      <trkpt lat="47.12559" lon="5.57649">
        <ele>211</ele>
        <time>2019-03-06T10:23:28Z</time>
      </trkpt>
      <trkpt lat="47.12556" lon="5.57655">
        <ele>211</ele>
        <time>2019-03-06T10:23:32Z</time>
      </trkpt>
      <trkpt lat="47.1255" lon="5.57665">
        <ele>213</ele>
        <time>2019-03-06T10:23:40Z</time>
      </trkpt>
      <trkpt lat="47.12526" lon="5.57713">
        <ele>211</ele>
        <time>2019-03-06T10:24:14Z</time>
      </trkpt>
      <trkpt lat="47.1252" lon="5.57727">
        <ele>210</ele>
        <time>2019-03-06T10:24:22Z</time>
      </trkpt>
      <trkpt lat="47.12518" lon="5.57733">
        <ele>211</ele>
        <time>2019-03-06T10:24:26Z</time>
      </trkpt>
      <trkpt lat="47.12517" lon="5.57739">
        <ele>211</ele>
        <time>2019-03-06T10:24:31Z</time>
      </trkpt>
      <trkpt lat="47.12509" lon="5.57759">
        <ele>210</ele>
        <time>2019-03-06T10:24:45Z</time>
      </trkpt>
      <trkpt lat="47.12505" lon="5.57762">
        <ele>210</ele>
        <time>2019-03-06T10:24:49Z</time>
      </trkpt>
      <trkpt lat="47.12498" lon="5.57754">
        <ele>209</ele>
        <time>2019-03-06T10:24:58Z</time>
      </trkpt>
      <trkpt lat="47.12497" lon="5.57747">
        <ele>209</ele>
        <time>2019-03-06T10:25:02Z</time>
      </trkpt>
      <trkpt lat="47.12493" lon="5.57734">
        <ele>210</ele>
        <time>2019-03-06T10:25:10Z</time>
      </trkpt>
      <trkpt lat="47.12483" lon="5.57689">
        <ele>210</ele>
        <time>2019-03-06T10:25:34Z</time>
      </trkpt>
      <trkpt lat="47.12481" lon="5.57682">
        <ele>209</ele>
        <time>2019-03-06T10:25:38Z</time>
      </trkpt>
      <trkpt lat="47.12479" lon="5.57677">
        <ele>210</ele>
        <time>2019-03-06T10:25:48Z</time>
      </trkpt>
      <trkpt lat="47.12476" lon="5.57671">
        <ele>209</ele>
        <time>2019-03-06T10:25:55Z</time>
      </trkpt>
      <trkpt lat="47.12472" lon="5.57664">
        <ele>210</ele>
        <time>2019-03-06T10:26:18Z</time>
      </trkpt>
      <trkpt lat="47.12467" lon="5.5766">
        <ele>209</ele>
        <time>2019-03-06T10:26:22Z</time>
      </trkpt>
      <trkpt lat="47.12463" lon="5.57664">
        <ele>209</ele>
        <time>2019-03-06T10:26:26Z</time>
      </trkpt>
      <trkpt lat="47.12453" lon="5.5768">
        <ele>208</ele>
        <time>2019-03-06T10:26:38Z</time>
      </trkpt>
      <trkpt lat="47.12445" lon="5.57689">
        <ele>209</ele>
        <time>2019-03-06T10:26:46Z</time>
      </trkpt>
      <trkpt lat="47.1244" lon="5.57695">
        <ele>208</ele>
        <time>2019-03-06T10:26:58Z</time>
      </trkpt>
      <trkpt lat="47.12423" lon="5.57715">
        <ele>211</ele>
        <time>2019-03-06T10:27:14Z</time>
      </trkpt>
      <trkpt lat="47.12419" lon="5.5772">
        <ele>210</ele>
        <time>2019-03-06T10:27:18Z</time>
      </trkpt>
      <trkpt lat="47.12411" lon="5.5773">
        <ele>210</ele>
        <time>2019-03-06T10:27:26Z</time>
      </trkpt>
      <trkpt lat="47.12407" lon="5.57735">
        <ele>210</ele>
        <time>2019-03-06T10:27:30Z</time>
      </trkpt>
      <trkpt lat="47.12399" lon="5.57747">
        <ele>211</ele>
        <time>2019-03-06T10:27:39Z</time>
      </trkpt>
      <trkpt lat="47.12383" lon="5.57769">
        <ele>210</ele>
        <time>2019-03-06T10:27:56Z</time>
      </trkpt>
      <trkpt lat="47.12353" lon="5.57805">
        <ele>213</ele>
        <time>2019-03-06T10:28:26Z</time>
      </trkpt>
      <trkpt lat="47.12324" lon="5.57844">
        <ele>214</ele>
        <time>2019-03-06T10:28:58Z</time>
      </trkpt>
      <trkpt lat="47.12297" lon="5.57883">
        <ele>214</ele>
        <time>2019-03-06T10:29:30Z</time>
      </trkpt>
      <trkpt lat="47.1229" lon="5.57891">
        <ele>215</ele>
        <time>2019-03-06T10:29:38Z</time>
      </trkpt>
      <trkpt lat="47.12282" lon="5.57901">
        <ele>214</ele>
        <time>2019-03-06T10:29:46Z</time>
      </trkpt>
      <trkpt lat="47.12276" lon="5.57912">
        <ele>215</ele>
        <time>2019-03-06T10:29:54Z</time>
      </trkpt>
      <trkpt lat="47.12246" lon="5.57947">
        <ele>220</ele>
        <time>2019-03-06T10:30:26Z</time>
      </trkpt>
      <trkpt lat="47.12238" lon="5.57955">
        <ele>221</ele>
        <time>2019-03-06T10:30:34Z</time>
      </trkpt>
      <trkpt lat="47.12231" lon="5.57965">
        <ele>220</ele>
        <time>2019-03-06T10:30:42Z</time>
      </trkpt>
      <trkpt lat="47.12224" lon="5.57974">
        <ele>219</ele>
        <time>2019-03-06T10:30:49Z</time>
      </trkpt>
      <trkpt lat="47.12216" lon="5.57983">
        <ele>220</ele>
        <time>2019-03-06T10:30:57Z</time>
      </trkpt>
      <trkpt lat="47.12209" lon="5.57994">
        <ele>221</ele>
        <time>2019-03-06T10:31:04Z</time>
      </trkpt>
      <trkpt lat="47.12179" lon="5.58032">
        <ele>222</ele>
        <time>2019-03-06T10:31:35Z</time>
      </trkpt>
      <trkpt lat="47.12173" lon="5.58042">
        <ele>223</ele>
        <time>2019-03-06T10:31:43Z</time>
      </trkpt>
      <trkpt lat="47.12165" lon="5.58051">
        <ele>222</ele>
        <time>2019-03-06T10:31:52Z</time>
      </trkpt>
      <trkpt lat="47.12134" lon="5.5809">
        <ele>225</ele>
        <time>2019-03-06T10:32:25Z</time>
      </trkpt>
      <trkpt lat="47.1213" lon="5.58095">
        <ele>225</ele>
        <time>2019-03-06T10:32:29Z</time>
      </trkpt>
      <trkpt lat="47.12126" lon="5.58099">
        <ele>225</ele>
        <time>2019-03-06T10:32:33Z</time>
      </trkpt>
      <trkpt lat="47.12122" lon="5.58103">
        <ele>225</ele>
        <time>2019-03-06T10:32:37Z</time>
      </trkpt>
      <trkpt lat="47.12119" lon="5.58108">
        <ele>225</ele>
        <time>2019-03-06T10:32:41Z</time>
      </trkpt>
      <trkpt lat="47.12111" lon="5.58117">
        <ele>226</ele>
        <time>2019-03-06T10:32:49Z</time>
      </trkpt>
      <trkpt lat="47.12108" lon="5.58122">
        <ele>226</ele>
        <time>2019-03-06T10:32:53Z</time>
      </trkpt>
      <trkpt lat="47.12104" lon="5.58127">
        <ele>227</ele>
        <time>2019-03-06T10:32:57Z</time>
      </trkpt>
      <trkpt lat="47.12101" lon="5.58132">
        <ele>227</ele>
        <time>2019-03-06T10:33:01Z</time>
      </trkpt>
      <trkpt lat="47.12097" lon="5.58138">
        <ele>227</ele>
        <time>2019-03-06T10:33:06Z</time>
      </trkpt>
      <trkpt lat="47.12093" lon="5.58143">
        <ele>227</ele>
        <time>2019-03-06T10:33:11Z</time>
      </trkpt>
      <trkpt lat="47.1209" lon="5.58148">
        <ele>226</ele>
        <time>2019-03-06T10:33:16Z</time>
      </trkpt>
      <trkpt lat="47.12086" lon="5.58153">
        <ele>227</ele>
        <time>2019-03-06T10:33:20Z</time>
      </trkpt>
      <trkpt lat="47.12081" lon="5.58158">
        <ele>227</ele>
        <time>2019-03-06T10:33:25Z</time>
      </trkpt>
      <trkpt lat="47.12077" lon="5.58162">
        <ele>227</ele>
        <time>2019-03-06T10:33:30Z</time>
      </trkpt>
      <trkpt lat="47.12074" lon="5.58168">
        <ele>227</ele>
        <time>2019-03-06T10:33:34Z</time>
      </trkpt>
      <trkpt lat="47.12071" lon="5.58173">
        <ele>226</ele>
        <time>2019-03-06T10:33:38Z</time>
      </trkpt>
      <trkpt lat="47.1206" lon="5.58187">
        <ele>228</ele>
        <time>2019-03-06T10:33:50Z</time>
      </trkpt>
      <trkpt lat="47.12051" lon="5.58204">
        <ele>230</ele>
        <time>2019-03-06T10:34:03Z</time>
      </trkpt>
      <trkpt lat="47.12045" lon="5.58215">
        <ele>230</ele>
        <time>2019-03-06T10:34:11Z</time>
      </trkpt>
      <trkpt lat="47.12022" lon="5.58247">
        <ele>234</ele>
        <time>2019-03-06T10:34:42Z</time>
      </trkpt>
      <trkpt lat="47.12015" lon="5.58257">
        <ele>235</ele>
        <time>2019-03-06T10:34:49Z</time>
      </trkpt>
      <trkpt lat="47.12008" lon="5.58274">
        <ele>234</ele>
        <time>2019-03-06T10:35:02Z</time>
      </trkpt>
      <trkpt lat="47.12011" lon="5.58281">
        <ele>235</ele>
        <time>2019-03-06T10:35:08Z</time>
      </trkpt>
      <trkpt lat="47.12015" lon="5.58287">
        <ele>235</ele>
        <time>2019-03-06T10:35:13Z</time>
      </trkpt>
      <trkpt lat="47.1202" lon="5.58291">
        <ele>235</ele>
        <time>2019-03-06T10:35:17Z</time>
      </trkpt>
      <trkpt lat="47.12023" lon="5.58296">
        <ele>235</ele>
        <time>2019-03-06T10:35:21Z</time>
      </trkpt>
      <trkpt lat="47.12026" lon="5.58302">
        <ele>235</ele>
        <time>2019-03-06T10:35:26Z</time>
      </trkpt>
      <trkpt lat="47.1203" lon="5.58306">
        <ele>236</ele>
        <time>2019-03-06T10:35:30Z</time>
      </trkpt>
      <trkpt lat="47.12037" lon="5.58317">
        <ele>236</ele>
        <time>2019-03-06T10:35:39Z</time>
      </trkpt>
      <trkpt lat="47.12044" lon="5.58328">
        <ele>237</ele>
        <time>2019-03-06T10:35:48Z</time>
      </trkpt>
      <trkpt lat="47.12059" lon="5.58356">
        <ele>238</ele>
        <time>2019-03-06T10:36:08Z</time>
      </trkpt>
      <trkpt lat="47.12063" lon="5.58362">
        <ele>238</ele>
        <time>2019-03-06T10:36:13Z</time>
      </trkpt>
      <trkpt lat="47.1207" lon="5.58373">
        <ele>237</ele>
        <time>2019-03-06T10:36:21Z</time>
      </trkpt>
      <trkpt lat="47.12077" lon="5.58384">
        <ele>238</ele>
        <time>2019-03-06T10:36:29Z</time>
      </trkpt>
      <trkpt lat="47.1208" lon="5.5839">
        <ele>237</ele>
        <time>2019-03-06T10:36:33Z</time>
      </trkpt>
      <trkpt lat="47.12087" lon="5.584">
        <ele>237</ele>
        <time>2019-03-06T10:36:41Z</time>
      </trkpt>
      <trkpt lat="47.1209" lon="5.58405">
        <ele>237</ele>
        <time>2019-03-06T10:36:45Z</time>
      </trkpt>
      <trkpt lat="47.12097" lon="5.58416">
        <ele>237</ele>
        <time>2019-03-06T10:36:54Z</time>
      </trkpt>
      <trkpt lat="47.121" lon="5.58423">
        <ele>238</ele>
        <time>2019-03-06T10:36:59Z</time>
      </trkpt>
      <trkpt lat="47.12106" lon="5.58433">
        <ele>237</ele>
        <time>2019-03-06T10:37:07Z</time>
      </trkpt>
      <trkpt lat="47.12109" lon="5.5844">
        <ele>238</ele>
        <time>2019-03-06T10:37:12Z</time>
      </trkpt>
      <trkpt lat="47.12112" lon="5.58446">
        <ele>237</ele>
        <time>2019-03-06T10:37:17Z</time>
      </trkpt>
      <trkpt lat="47.12125" lon="5.58459">
        <ele>235</ele>
        <time>2019-03-06T10:37:31Z</time>
      </trkpt>
      <trkpt lat="47.12129" lon="5.58464">
        <ele>235</ele>
        <time>2019-03-06T10:37:35Z</time>
      </trkpt>
      <trkpt lat="47.12132" lon="5.58468">
        <ele>234</ele>
        <time>2019-03-06T10:37:39Z</time>
      </trkpt>
      <trkpt lat="47.12137" lon="5.58471">
        <ele>233</ele>
        <time>2019-03-06T10:37:43Z</time>
      </trkpt>
      <trkpt lat="47.12141" lon="5.58475">
        <ele>233</ele>
        <time>2019-03-06T10:37:47Z</time>
      </trkpt>
      <trkpt lat="47.1215" lon="5.58492">
        <ele>232</ele>
        <time>2019-03-06T10:38:00Z</time>
      </trkpt>
      <trkpt lat="47.12154" lon="5.58497">
        <ele>231</ele>
        <time>2019-03-06T10:38:04Z</time>
      </trkpt>
      <trkpt lat="47.12157" lon="5.58504">
        <ele>231</ele>
        <time>2019-03-06T10:38:08Z</time>
      </trkpt>
      <trkpt lat="47.1216" lon="5.58511">
        <ele>231</ele>
        <time>2019-03-06T10:38:12Z</time>
      </trkpt>
      <trkpt lat="47.12167" lon="5.58522">
        <ele>230</ele>
        <time>2019-03-06T10:38:20Z</time>
      </trkpt>
      <trkpt lat="47.12173" lon="5.58533">
        <ele>230</ele>
        <time>2019-03-06T10:38:27Z</time>
      </trkpt>
      <trkpt lat="47.12176" lon="5.5854">
        <ele>229</ele>
        <time>2019-03-06T10:38:31Z</time>
      </trkpt>
      <trkpt lat="47.1218" lon="5.58545">
        <ele>229</ele>
        <time>2019-03-06T10:38:35Z</time>
      </trkpt>
      <trkpt lat="47.12182" lon="5.58552">
        <ele>229</ele>
        <time>2019-03-06T10:38:39Z</time>
      </trkpt>
      <trkpt lat="47.12186" lon="5.58567">
        <ele>230</ele>
        <time>2019-03-06T10:38:48Z</time>
      </trkpt>
      <trkpt lat="47.12187" lon="5.58573">
        <ele>229</ele>
        <time>2019-03-06T10:38:52Z</time>
      </trkpt>
      <trkpt lat="47.1219" lon="5.58579">
        <ele>228</ele>
        <time>2019-03-06T10:38:57Z</time>
      </trkpt>
      <trkpt lat="47.12194" lon="5.58584">
        <ele>226</ele>
        <time>2019-03-06T10:39:02Z</time>
      </trkpt>
      <trkpt lat="47.12205" lon="5.58608">
        <ele>223</ele>
        <time>2019-03-06T10:39:19Z</time>
      </trkpt>
      <trkpt lat="47.12208" lon="5.58614">
        <ele>223</ele>
        <time>2019-03-06T10:39:23Z</time>
      </trkpt>
      <trkpt lat="47.12212" lon="5.58619">
        <ele>222</ele>
        <time>2019-03-06T10:39:28Z</time>
      </trkpt>
      <trkpt lat="47.12215" lon="5.58625">
        <ele>222</ele>
        <time>2019-03-06T10:39:32Z</time>
      </trkpt>
      <trkpt lat="47.12217" lon="5.58631">
        <ele>222</ele>
        <time>2019-03-06T10:39:36Z</time>
      </trkpt>
      <trkpt lat="47.1222" lon="5.58637">
        <ele>221</ele>
        <time>2019-03-06T10:39:40Z</time>
      </trkpt>
      <trkpt lat="47.12223" lon="5.58642">
        <ele>220</ele>
        <time>2019-03-06T10:39:44Z</time>
      </trkpt>
      <trkpt lat="47.12229" lon="5.58646">
        <ele>219</ele>
        <time>2019-03-06T10:39:49Z</time>
      </trkpt>
      <trkpt lat="47.12232" lon="5.58651">
        <ele>219</ele>
        <time>2019-03-06T10:39:53Z</time>
      </trkpt>
      <trkpt lat="47.12234" lon="5.58666">
        <ele>218</ele>
        <time>2019-03-06T10:40:01Z</time>
      </trkpt>
      <trkpt lat="47.12242" lon="5.58675">
        <ele>218</ele>
        <time>2019-03-06T10:40:10Z</time>
      </trkpt>
      <trkpt lat="47.12248" lon="5.58674">
        <ele>217</ele>
        <time>2019-03-06T10:40:15Z</time>
      </trkpt>
      <trkpt lat="47.12256" lon="5.58666">
        <ele>216</ele>
        <time>2019-03-06T10:40:25Z</time>
      </trkpt>
      <trkpt lat="47.12263" lon="5.58656">
        <ele>216</ele>
        <time>2019-03-06T10:40:33Z</time>
      </trkpt>
      <trkpt lat="47.12267" lon="5.58652">
        <ele>216</ele>
        <time>2019-03-06T10:40:38Z</time>
      </trkpt>
      <trkpt lat="47.12277" lon="5.58649">
        <ele>214</ele>
        <time>2019-03-06T10:40:44Z</time>
      </trkpt>
      <trkpt lat="47.12282" lon="5.58647">
        <ele>215</ele>
        <time>2019-03-06T10:40:48Z</time>
      </trkpt>
      <trkpt lat="47.12287" lon="5.58644">
        <ele>214</ele>
        <time>2019-03-06T10:40:53Z</time>
      </trkpt>
      <trkpt lat="47.12303" lon="5.58643">
        <ele>215</ele>
        <time>2019-03-06T10:41:09Z</time>
      </trkpt>
      <trkpt lat="47.12313" lon="5.58644">
        <ele>214</ele>
        <time>2019-03-06T10:41:18Z</time>
      </trkpt>
      <trkpt lat="47.12322" lon="5.58643">
        <ele>215</ele>
        <time>2019-03-06T10:41:24Z</time>
      </trkpt>
      <trkpt lat="47.12359" lon="5.58649">
        <ele>212</ele>
        <time>2019-03-06T10:41:56Z</time>
      </trkpt>
      <trkpt lat="47.12369" lon="5.58651">
        <ele>213</ele>
        <time>2019-03-06T10:42:04Z</time>
      </trkpt>
      <trkpt lat="47.12406" lon="5.58658">
        <ele>212</ele>
        <time>2019-03-06T10:42:32Z</time>
      </trkpt>
      <trkpt lat="47.12415" lon="5.58659">
        <ele>210</ele>
        <time>2019-03-06T10:42:40Z</time>
      </trkpt>
      <trkpt lat="47.12419" lon="5.58658">
        <ele>211</ele>
        <time>2019-03-06T10:42:44Z</time>
      </trkpt>
      <trkpt lat="47.12425" lon="5.58657">
        <ele>211</ele>
        <time>2019-03-06T10:42:48Z</time>
      </trkpt>
      <trkpt lat="47.12435" lon="5.5865">
        <ele>209</ele>
        <time>2019-03-06T10:42:54Z</time>
      </trkpt>
      <trkpt lat="47.12439" lon="5.58647">
        <ele>209</ele>
        <time>2019-03-06T10:42:57Z</time>
      </trkpt>
      <trkpt lat="47.12448" lon="5.58638">
        <ele>210</ele>
        <time>2019-03-06T10:43:05Z</time>
      </trkpt>
      <trkpt lat="47.12451" lon="5.58633">
        <ele>209</ele>
        <time>2019-03-06T10:43:09Z</time>
      </trkpt>
      <trkpt lat="47.12454" lon="5.58628">
        <ele>209</ele>
        <time>2019-03-06T10:43:13Z</time>
      </trkpt>
      <trkpt lat="47.12459" lon="5.58622">
        <ele>209</ele>
        <time>2019-03-06T10:43:19Z</time>
      </trkpt>
      <trkpt lat="47.12463" lon="5.58617">
        <ele>209</ele>
        <time>2019-03-06T10:43:24Z</time>
      </trkpt>
      <trkpt lat="47.12465" lon="5.5861">
        <ele>210</ele>
        <time>2019-03-06T10:43:29Z</time>
      </trkpt>
      <trkpt lat="47.12468" lon="5.58604">
        <ele>210</ele>
        <time>2019-03-06T10:43:34Z</time>
      </trkpt>
      <trkpt lat="47.12473" lon="5.586">
        <ele>209</ele>
        <time>2019-03-06T10:43:37Z</time>
      </trkpt>
      <trkpt lat="47.12477" lon="5.58595">
        <ele>209</ele>
        <time>2019-03-06T10:43:41Z</time>
      </trkpt>
      <trkpt lat="47.12477" lon="5.58588">
        <ele>208</ele>
        <time>2019-03-06T10:43:46Z</time>
      </trkpt>
      <trkpt lat="47.1248" lon="5.58582">
        <ele>208</ele>
        <time>2019-03-06T10:43:50Z</time>
      </trkpt>
      <trkpt lat="47.12483" lon="5.58577">
        <ele>208</ele>
        <time>2019-03-06T10:43:53Z</time>
      </trkpt>
      <trkpt lat="47.12486" lon="5.58571">
        <ele>208</ele>
        <time>2019-03-06T10:43:57Z</time>
      </trkpt>
      <trkpt lat="47.12488" lon="5.58565">
        <ele>208</ele>
        <time>2019-03-06T10:44:01Z</time>
      </trkpt>
      <trkpt lat="47.12491" lon="5.58557">
        <ele>208</ele>
        <time>2019-03-06T10:44:06Z</time>
      </trkpt>
      <trkpt lat="47.12494" lon="5.58552">
        <ele>208</ele>
        <time>2019-03-06T10:44:10Z</time>
      </trkpt>
      <trkpt lat="47.12499" lon="5.58548">
        <ele>208</ele>
        <time>2019-03-06T10:44:14Z</time>
      </trkpt>
      <trkpt lat="47.12513" lon="5.58552">
        <ele>208</ele>
        <time>2019-03-06T10:44:26Z</time>
      </trkpt>
      <trkpt lat="47.12523" lon="5.5855">
        <ele>209</ele>
        <time>2019-03-06T10:44:36Z</time>
      </trkpt>
      <trkpt lat="47.12529" lon="5.5855">
        <ele>208</ele>
        <time>2019-03-06T10:44:44Z</time>
      </trkpt>
      <trkpt lat="47.12533" lon="5.58545">
        <ele>207</ele>
        <time>2019-03-06T10:45:01Z</time>
      </trkpt>
      <trkpt lat="47.12537" lon="5.58541">
        <ele>207</ele>
        <time>2019-03-06T10:45:13Z</time>
      </trkpt>
      <trkpt lat="47.12562" lon="5.58542">
        <ele>206</ele>
        <time>2019-03-06T08:01:25Z</time>
      </trkpt>
      <trkpt lat="47.12562" lon="5.58542">
        <ele>206</ele>
        <time>2019-03-06T08:01:25Z</time>
      </trkpt>
      <trkpt lat="47.12557" lon="5.58538">
        <ele>200</ele>
        <time>2019-03-06T08:01:49Z</time>
      </trkpt>
      <trkpt lat="47.12552" lon="5.58539">
        <ele>197</ele>
        <time>2019-03-06T08:01:52Z</time>
      </trkpt>
      <trkpt lat="47.12548" lon="5.58541">
        <ele>196</ele>
        <time>2019-03-06T08:01:56Z</time>
      </trkpt>
      <trkpt lat="47.12546" lon="5.58548">
        <ele>197</ele>
        <time>2019-03-06T08:02:09Z</time>
      </trkpt>
      <trkpt lat="47.12539" lon="5.58559">
        <ele>200</ele>
        <time>2019-03-06T08:02:17Z</time>
      </trkpt>
      <trkpt lat="47.12533" lon="5.58555">
        <ele>198</ele>
        <time>2019-03-06T08:03:07Z</time>
      </trkpt>
      <trkpt lat="47.12529" lon="5.58556">
        <ele>197</ele>
        <time>2019-03-06T08:03:12Z</time>
      </trkpt>
      <trkpt lat="47.12519" lon="5.5856">
        <ele>199</ele>
        <time>2019-03-06T08:03:21Z</time>
      </trkpt>
      <trkpt lat="47.12514" lon="5.58558">
        <ele>199</ele>
        <time>2019-03-06T08:03:25Z</time>
      </trkpt>
      <trkpt lat="47.12509" lon="5.58555">
        <ele>200</ele>
        <time>2019-03-06T08:03:30Z</time>
      </trkpt>
      <trkpt lat="47.12504" lon="5.58551">
        <ele>200</ele>
        <time>2019-03-06T08:03:34Z</time>
      </trkpt>
      <trkpt lat="47.125" lon="5.58548">
        <ele>201</ele>
        <time>2019-03-06T08:03:38Z</time>
      </trkpt>
      <trkpt lat="47.12493" lon="5.58553">
        <ele>200</ele>
        <time>2019-03-06T08:03:47Z</time>
      </trkpt>
      <trkpt lat="47.1249" lon="5.58558">
        <ele>201</ele>
        <time>2019-03-06T08:03:52Z</time>
      </trkpt>
      <trkpt lat="47.12481" lon="5.58576">
        <ele>202</ele>
        <time>2019-03-06T08:04:04Z</time>
      </trkpt>
      <trkpt lat="47.12478" lon="5.58581">
        <ele>202</ele>
        <time>2019-03-06T08:04:08Z</time>
      </trkpt>
      <trkpt lat="47.12475" lon="5.58586">
        <ele>202</ele>
        <time>2019-03-06T08:04:12Z</time>
      </trkpt>
      <trkpt lat="47.12472" lon="5.58592">
        <ele>202</ele>
        <time>2019-03-06T08:04:16Z</time>
      </trkpt>
      <trkpt lat="47.12465" lon="5.58604">
        <ele>202</ele>
        <time>2019-03-06T08:04:25Z</time>
      </trkpt>
      <trkpt lat="47.12446" lon="5.58626">
        <ele>203</ele>
        <time>2019-03-06T08:04:46Z</time>
      </trkpt>
      <trkpt lat="47.1243" lon="5.58652">
        <ele>202</ele>
        <time>2019-03-06T08:05:11Z</time>
      </trkpt>
      <trkpt lat="47.12425" lon="5.58656">
        <ele>202</ele>
        <time>2019-03-06T08:05:16Z</time>
      </trkpt>
      <trkpt lat="47.12428" lon="5.58664">
        <ele>202</ele>
        <time>2019-03-06T08:05:22Z</time>
      </trkpt>
    </trkseg>
  </trk>
</gpx>